Observation data for Vigo Park on 01/19/2019      Previous  Date  Next       Current Mesonet Observations  Soil Data  Daily Summary Page  Observations in Plain Language
KVP1 190600Z 34019G24KT M00/M03 A3003 RMK A01 T10031025  RH  085%=      5-min Rain = 0
KVP1 190601Z 34023G28KT M00/M03 A3003 RMK A01 T10031025  RH  085%=      5-min Rain = 0
KVP1 190602Z 34024KT M00/M03 A3003 RMK A01 T10031025  RH  085%=      5-min Rain = 0
KVP1 190603Z 33025KT M00/M03 A3003 RMK A01 T10031025  RH  085%=      5-min Rain = 0
KVP1 190604Z 34024KT M00/M02 A3003 RMK A01 T10031024  RH  085%=      5-min Rain = 0
KVP1 190605Z 34022KT M00/M02 A3004 RMK A01 T10021024  RH  085%=      5-min Rain = 0
KVP1 190606Z 34024G30KT M00/M02 A3004 RMK A01 T10031024  RH  086%=      5-min Rain = 0
KVP1 190607Z 34021KT M00/M02 A3004 RMK A01 T10031024  RH  086%=      5-min Rain = 0
KVP1 190608Z 34025G30KT M00/M02 A3004 RMK A01 T10021023  RH  086%=      5-min Rain = 0
KVP1 190609Z 34025G30KT M00/M02 A3004 RMK A01 T10021023  RH  086%=      5-min Rain = 0
KVP1 190610Z 34023G28KT M00/M02 A3004 RMK A01 T10021023  RH  085%=      5-min Rain = 0
KVP1 190611Z 34024G30KT M00/M02 A3004 RMK A01 T10011023  RH  085%=      5-min Rain = 0
KVP1 190612Z 34022KT M00/M02 A3004 RMK A01 T10011023  RH  085%=      5-min Rain = 0
KVP1 190613Z 34023KT M00/M02 A3004 RMK A01 T10011023  RH  085%=      5-min Rain = 0
KVP1 190614Z 34022KT M00/M02 A3004 RMK A01 T10011023  RH  085%=      5-min Rain = 0
KVP1 190615Z 33020KT M00/M02 A3004 RMK A01 T10011023  RH  085%=      5-min Rain = 0
KVP1 190616Z 34021G26KT M00/M02 A3004 RMK A01 T10011022  RH  086%=      5-min Rain = 0
KVP1 190617Z 34020G26KT M00/M02 A3004 RMK A01 T10011022  RH  086%=      5-min Rain = 0
KVP1 190618Z 33021KT M00/M02 A3004 RMK A01 T10011022  RH  086%=      5-min Rain = 0
KVP1 190619Z 33023KT M00/M02 A3004 RMK A01 T10011022  RH  086%=      5-min Rain = 0
KVP1 190620Z 33021KT M00/M02 A3004 RMK A01 T10011022  RH  086%=      5-min Rain = 0
KVP1 190621Z 34021KT M00/M02 A3004 RMK A01 T10011022  RH  086%=      5-min Rain = 0
KVP1 190622Z 34019KT 00/02 A3005 RMK A01 T00-00-21  RH  086%=      5-min Rain = 0
KVP1 190623Z 33021G26KT 00/02 A3004 RMK A01 T00-00-21  RH  086%=      5-min Rain = 0
KVP1 190624Z 33025G30KT 00/02 A3004 RMK A01 T00000-21  RH  086%=      5-min Rain = 0
KVP1 190625Z 33024KT 00/M02 A3004 RMK A01 T00011021  RH  085%=      5-min Rain = 0
KVP1 190626Z 33023KT 00/M02 A3005 RMK A01 T00011022  RH  085%=      5-min Rain = 0
KVP1 190627Z 34020G25KT 00/M02 A3005 RMK A01 T00011021  RH  085%=      5-min Rain = 0
KVP1 190628Z 33024KT 00/M02 A3005 RMK A01 T00011022  RH  085%=      5-min Rain = 0
KVP1 190629Z 33025KT 00/M02 A3005 RMK A01 T00011022  RH  085%=      5-min Rain = 0
KVP1 190630Z 34023KT 00/M02 A3005 RMK A01 T00021022  RH  084%=      5-min Rain = 0
KVP1 190631Z 33022KT 00/M02 A3005 RMK A01 T00021022  RH  084%=      5-min Rain = 0
KVP1 190632Z 33022KT 00/M02 A3005 RMK A01 T00021022  RH  084%=      5-min Rain = 0
KVP1 190633Z 34024KT 00/M02 A3005 RMK A01 T00021022  RH  084%=      5-min Rain = 0
KVP1 190634Z 33020KT 00/M02 A3005 RMK A01 T00021022  RH  084%=      5-min Rain = 0
KVP1 190635Z 33022G27KT 00/M02 A3005 RMK A01 T00021022  RH  084%=      5-min Rain = 0
KVP1 190636Z 33025KT 00/M02 A3005 RMK A01 T00031022  RH  083%=      5-min Rain = 0
KVP1 190637Z 33028G35KT 00/M02 A3005 RMK A01 T00031024  RH  082%=      5-min Rain = 0
KVP1 190638Z 34029G35KT 00/M03 A3005 RMK A01 T00041025  RH  081%=      5-min Rain = 0
KVP1 190639Z 35024G31KT 00/M03 A3005 RMK A01 T00041026  RH  080%=      5-min Rain = 0
KVP1 190640Z 34031G38KT 01/M03 A3005 RMK A01 T00051027  RH  079%=      5-min Rain = 0
KVP1 190641Z 34028G34KT 01/M03 A3005 RMK A01 T00051028  RH  078%=      5-min Rain = 0
KVP1 190642Z 34024G32KT 01/M03 A3005 RMK A01 T00051028  RH  078%=      5-min Rain = 0
KVP1 190643Z 34030G36KT 01/M03 A3005 RMK A01 T00061027  RH  079%=      5-min Rain = 0
KVP1 190644Z 34030G35KT 01/M03 A3005 RMK A01 T00051027  RH  079%=      5-min Rain = 0
KVP1 190645Z 34027G33KT 01/M03 A3005 RMK A01 T00051027  RH  079%=      5-min Rain = 0
KVP1 190646Z 34030G35KT 01/M03 A3005 RMK A01 T00051027  RH  079%=      5-min Rain = 0
KVP1 190647Z 34024G30KT 01/M03 A3005 RMK A01 T00051027  RH  079%=      5-min Rain = 0
KVP1 190648Z 34028KT 01/M03 A3005 RMK A01 T00051027  RH  079%=      5-min Rain = 0
KVP1 190649Z 34022G28KT 01/M03 A3005 RMK A01 T00051027  RH  079%=      5-min Rain = 0
KVP1 190650Z 34026G31KT 01/M03 A3005 RMK A01 T00051027  RH  079%=      5-min Rain = 0
KVP1 190651Z 34026G31KT 01/M03 A3005 RMK A01 T00051027  RH  079%=      5-min Rain = 0
KVP1 190652Z 34029G34KT 00/M03 A3005 RMK A01 T00041027  RH  079%=      5-min Rain = 0
KVP1 190653Z 34027KT 00/M03 A3005 RMK A01 T00041028  RH  079%=      5-min Rain = 0
KVP1 190654Z 34029KT 00/M03 A3005 RMK A01 T00041028  RH  079%=      5-min Rain = 0
KVP1 190655Z 34026KT 01/M03 A3005 RMK A01 T00051028  RH  079%=      5-min Rain = 0
KVP1 190656Z 33026KT 00/M03 A3005 RMK A01 T00041028  RH  079%=      5-min Rain = 0
KVP1 190657Z 34023KT 00/M03 A3005 RMK A01 T00041028  RH  079%=      5-min Rain = 0
KVP1 190658Z 34025KT 00/M03 A3005 RMK A01 T00031029  RH  079%=      5-min Rain = 0
KVP1 190659Z 34028KT 00/M03 A3005 RMK A01 T00031029  RH  079%=      5-min Rain = 0
KVP1 190700Z 33026G31KT 00/M03 A3005 RMK A01 T00031029  RH  079%=      5-min Rain = 0
KVP1 190701Z 34033G38KT 00/M03 A3005 RMK A01 T00031029  RH  079%=      5-min Rain = 0
KVP1 190702Z 34028G34KT 00/M03 A3005 RMK A01 T00041031  RH  078%=      5-min Rain = 0
KVP1 190703Z 34029KT 00/M03 A3005 RMK A01 T00041031  RH  078%=      5-min Rain = 0
KVP1 190704Z 33029KT 00/M03 A3005 RMK A01 T00041030  RH  078%=      5-min Rain = 0
KVP1 190705Z 33032KT 00/M03 A3005 RMK A01 T00031031  RH  078%=      5-min Rain = 0
KVP1 190706Z 33031KT 00/M03 A3005 RMK A01 T00021031  RH  078%=      5-min Rain = 0
KVP1 190707Z 34030G36KT 00/M03 A3005 RMK A01 T00021031  RH  078%=      5-min Rain = 0
KVP1 190708Z 34031KT 00/M03 A3005 RMK A01 T00021032  RH  078%=      5-min Rain = 0
KVP1 190709Z 34028G35KT 00/M03 A3005 RMK A01 T00011032  RH  078%=      5-min Rain = 0
KVP1 190710Z 33032G37KT 00/M03 A3005 RMK A01 T00011032  RH  078%=      5-min Rain = 0
KVP1 190711Z 34028G33KT 00/M03 A3005 RMK A01 T00011033  RH  078%=      5-min Rain = 0
KVP1 190712Z 33030KT 00/M03 A3006 RMK A01 T00011033  RH  078%=      5-min Rain = 0
KVP1 190713Z 34029G37KT 00/03 A3006 RMK A01 T00000-34  RH  078%=      5-min Rain = 0
KVP1 190714Z 33031KT 00/03 A3006 RMK A01 T00-00-34  RH  078%=      5-min Rain = 0
KVP1 190715Z 33031G36KT 00/04 A3006 RMK A01 T00-00-35  RH  077%=      5-min Rain = 0
KVP1 190716Z 33031KT 00/04 A3006 RMK A01 T00-00-35  RH  077%=      5-min Rain = 0
KVP1 190717Z 34030KT M00/M04 A3006 RMK A01 T10011036  RH  077%=      5-min Rain = 0
KVP1 190718Z 34025G31KT M00/M04 A3006 RMK A01 T10011036  RH  077%=      5-min Rain = 0
KVP1 190719Z 34022G27KT M00/M04 A3006 RMK A01 T10021036  RH  078%=      5-min Rain = 0
KVP1 190720Z 33024G29KT M00/M04 A3006 RMK A01 T10031037  RH  078%=      5-min Rain = 0
KVP1 190721Z 34024G29KT M00/M04 A3006 RMK A01 T10031036  RH  078%=      5-min Rain = 0
KVP1 190722Z 34022KT M00/M04 A3006 RMK A01 T10041036  RH  079%=      5-min Rain = 0
KVP1 190723Z 33026KT M00/M04 A3006 RMK A01 T10041037  RH  079%=      5-min Rain = 0
KVP1 190724Z 33026G31KT M00/M04 A3006 RMK A01 T10041036  RH  079%=      5-min Rain = 0
KVP1 190725Z 33025G31KT M01/M04 A3006 RMK A01 T10051036  RH  079%=      5-min Rain = 0
KVP1 190726Z 33026G33KT M00/M04 A3006 RMK A01 T10041036  RH  079%=      5-min Rain = 0
KVP1 190727Z 33033KT M00/M04 A3006 RMK A01 T10041037  RH  078%=      5-min Rain = 0
KVP1 190728Z 33031G36KT M01/M04 A3006 RMK A01 T10051039  RH  077%=      5-min Rain = 0
KVP1 190729Z 33033KT M01/M04 A3006 RMK A01 T10051040  RH  077%=      5-min Rain = 0
KVP1 190730Z 33029G34KT M01/M04 A3007 RMK A01 T10051041  RH  077%=      5-min Rain = 0
KVP1 190731Z 33029G36KT M01/M04 A3007 RMK A01 T10061041  RH  077%=      5-min Rain = 0
KVP1 190732Z 33026G35KT M01/M04 A3007 RMK A01 T10061041  RH  077%=      5-min Rain = 0
KVP1 190733Z 33026G32KT M01/M04 A3007 RMK A01 T10071042  RH  077%=      5-min Rain = 0
KVP1 190734Z 34027KT M01/M04 A3007 RMK A01 T10071042  RH  077%=      5-min Rain = 0
KVP1 190735Z 34025KT M01/M04 A3007 RMK A01 T10071042  RH  077%=      5-min Rain = 0
KVP1 190736Z 33030KT M01/M04 A3007 RMK A01 T10081043  RH  077%=      5-min Rain = 0
KVP1 190737Z 34029G35KT M01/M04 A3007 RMK A01 T10081044  RH  077%=      5-min Rain = 0
KVP1 190738Z 34029G34KT M01/M04 A3007 RMK A01 T10071044  RH  076%=      5-min Rain = 0
KVP1 190739Z 33029G34KT M01/M04 A3007 RMK A01 T10071044  RH  076%=      5-min Rain = 0
KVP1 190740Z 34032KT M01/M04 A3007 RMK A01 T10071044  RH  076%=      5-min Rain = 0
KVP1 190741Z 33032KT M01/M05 A3007 RMK A01 T10071045  RH  076%=      5-min Rain = 0
KVP1 190742Z 34028KT M01/M05 A3007 RMK A01 T10071046  RH  075%=      5-min Rain = 0
KVP1 190743Z 34026G32KT M01/M05 A3007 RMK A01 T10071046  RH  075%=      5-min Rain = 0
KVP1 190744Z 34025G30KT M01/M05 A3007 RMK A01 T10081046  RH  076%=      5-min Rain = 0
KVP1 190745Z 34028G33KT M01/M05 A3007 RMK A01 T10081045  RH  076%=      5-min Rain = 0
KVP1 190746Z 34025KT M01/M05 A3008 RMK A01 T10081045  RH  076%=      5-min Rain = 0
KVP1 190747Z 33026G33KT M01/M05 A3008 RMK A01 T10081045  RH  076%=      5-min Rain = 0
KVP1 190748Z 33027KT M01/M04 A3008 RMK A01 T10081044  RH  076%=      5-min Rain = 0
KVP1 190749Z 34028G33KT M01/M04 A3008 RMK A01 T10081044  RH  077%=      5-min Rain = 0
KVP1 190750Z 33028G33KT M01/M04 A3008 RMK A01 T10081044  RH  077%=      5-min Rain = 0
KVP1 190751Z 33025G30KT M01/M05 A3008 RMK A01 T10091045  RH  077%=      5-min Rain = 0
KVP1 190752Z 33026G31KT M01/M05 A3008 RMK A01 T10091045  RH  077%=      5-min Rain = 0
KVP1 190753Z 33028G33KT M01/M05 A3007 RMK A01 T10091045  RH  077%=      5-min Rain = 0
KVP1 190754Z 34029G34KT M01/M05 A3007 RMK A01 T10091046  RH  076%=      5-min Rain = 0
KVP1 190755Z 34025G33KT M01/M05 A3008 RMK A01 T10091046  RH  076%=      5-min Rain = 0
KVP1 190756Z 34026KT M01/M05 A3008 RMK A01 T10101046  RH  076%=      5-min Rain = 0
KVP1 190757Z 34026KT M01/M05 A3008 RMK A01 T10101046  RH  077%=      5-min Rain = 0
KVP1 190758Z 33023KT M01/M05 A3008 RMK A01 T10111047  RH  077%=      5-min Rain = 0
KVP1 190759Z 34025KT M01/M05 A3008 RMK A01 T10111046  RH  077%=      5-min Rain = 0
KVP1 190800Z 34022KT M01/M05 A3008 RMK A01 T10111047  RH  077%=      5-min Rain = 0
KVP1 190801Z 34027KT M01/M05 A3008 RMK A01 T10121047  RH  077%=      5-min Rain = 0
KVP1 190802Z 34025KT M01/M05 A3008 RMK A01 T10121047  RH  077%=      5-min Rain = 0
KVP1 190803Z 34024KT M01/M05 A3008 RMK A01 T10121047  RH  077%=      5-min Rain = 0
KVP1 190804Z 34025KT M01/M05 A3008 RMK A01 T10121047  RH  077%=      5-min Rain = 0
KVP1 190805Z 33030G38KT M01/M05 A3008 RMK A01 T10121047  RH  077%=      5-min Rain = 0
KVP1 190806Z 34028KT M01/M05 A3009 RMK A01 T10121048  RH  077%=      5-min Rain = 0
KVP1 190807Z 34025KT M01/M05 A3009 RMK A01 T10121048  RH  077%=      5-min Rain = 0
KVP1 190808Z 34028KT M01/M05 A3009 RMK A01 T10131048  RH  077%=      5-min Rain = 0
KVP1 190809Z 34024KT M01/M05 A3009 RMK A01 T10131049  RH  077%=      5-min Rain = 0
KVP1 190810Z 34025G32KT M01/M05 A3009 RMK A01 T10131049  RH  077%=      5-min Rain = 0
KVP1 190811Z 34023KT M01/M05 A3009 RMK A01 T10141049  RH  077%=      5-min Rain = 0
KVP1 190812Z 34023KT M01/M05 A3009 RMK A01 T10141050  RH  077%=      5-min Rain = 0
KVP1 190813Z 34024G31KT M02/M05 A3009 RMK A01 T10151050  RH  077%=      5-min Rain = 0
KVP1 190814Z 34023KT M02/M05 A3009 RMK A01 T10151050  RH  077%=      5-min Rain = 0
KVP1 190815Z 34021KT M01/M05 A3009 RMK A01 T10141050  RH  077%=      5-min Rain = 0
KVP1 190816Z 34020KT M02/M05 A3009 RMK A01 T10151050  RH  077%=      5-min Rain = 0
KVP1 190817Z 34021G26KT M02/M05 A3009 RMK A01 T10151051  RH  077%=      5-min Rain = 0
KVP1 190818Z 34024KT M02/M05 A3009 RMK A01 T10151051  RH  077%=      5-min Rain = 0
KVP1 190819Z 34026KT M02/M05 A3009 RMK A01 T10151051  RH  077%=      5-min Rain = 0
KVP1 190820Z 34025KT M02/M05 A3009 RMK A01 T10151051  RH  077%=      5-min Rain = 0
KVP1 190821Z 34023G28KT M02/M05 A301 RMK A01 T10151051  RH  077%=      5-min Rain = 0
KVP1 190822Z 34024G30KT M02/M05 A301 RMK A01 T10161051  RH  077%=      5-min Rain = 0
KVP1 190823Z 34024KT M02/M05 A301 RMK A01 T10161051  RH  077%=      5-min Rain = 0
KVP1 190824Z 34025G33KT M02/M05 A301 RMK A01 T10161050  RH  077%=      5-min Rain = 0
KVP1 190825Z 34024G31KT M02/M05 A301 RMK A01 T10161050  RH  077%=      5-min Rain = 0
KVP1 190826Z 34026G31KT M02/M05 A301 RMK A01 T10161050  RH  078%=      5-min Rain = 0
KVP1 190827Z 34022KT M02/M05 A301 RMK A01 T10161050  RH  078%=      5-min Rain = 0
KVP1 190828Z 34024KT M02/M05 A301 RMK A01 T10171050  RH  078%=      5-min Rain = 0
KVP1 190829Z 34019KT M02/M05 A301 RMK A01 T10171050  RH  078%=      5-min Rain = 0
KVP1 190830Z 34020KT M02/M05 A301 RMK A01 T10171050  RH  078%=      5-min Rain = 0
KVP1 190831Z 34019KT M02/M05 A301 RMK A01 T10181050  RH  079%=      5-min Rain = 0
KVP1 190832Z 34023KT M02/M05 A301 RMK A01 T10181050  RH  079%=      5-min Rain = 0
KVP1 190833Z 34022KT M02/M05 A301 RMK A01 T10181050  RH  079%=      5-min Rain = 0
KVP1 190834Z 34026KT M02/M05 A3011 RMK A01 T10181050  RH  079%=      5-min Rain = 0
KVP1 190835Z 33022G27KT M02/M05 A301 RMK A01 T10181050  RH  079%=      5-min Rain = 0
KVP1 190836Z 33022KT M02/M05 A3011 RMK A01 T10171050  RH  079%=      5-min Rain = 0
KVP1 190837Z 33022G28KT M02/M05 A3011 RMK A01 T10171050  RH  079%=      5-min Rain = 0
KVP1 190838Z 34026G31KT M02/M05 A3011 RMK A01 T10181050  RH  079%=      5-min Rain = 0
KVP1 190839Z 34023G29KT M02/M05 A3011 RMK A01 T10171050  RH  078%=      5-min Rain = 0
KVP1 190840Z 34024KT M02/M05 A3011 RMK A01 T10171050  RH  078%=      5-min Rain = 0
KVP1 190841Z 34025G30KT M02/M05 A3011 RMK A01 T10171050  RH  078%=      5-min Rain = 0
KVP1 190842Z 34025KT M02/M05 A3011 RMK A01 T10171051  RH  078%=      5-min Rain = 0
KVP1 190843Z 34025KT M02/M05 A3011 RMK A01 T10171051  RH  078%=      5-min Rain = 0
KVP1 190844Z 34024KT M02/M05 A3011 RMK A01 T10171051  RH  078%=      5-min Rain = 0
KVP1 190845Z 34020G27KT M02/M05 A3011 RMK A01 T10171051  RH  078%=      5-min Rain = 0
KVP1 190846Z 34021KT M02/M05 A3011 RMK A01 T10171051  RH  078%=      5-min Rain = 0
KVP1 190847Z 34024G29KT M02/M05 A3011 RMK A01 T10181051  RH  078%=      5-min Rain = 0
KVP1 190848Z 34022G28KT M02/M05 A3011 RMK A01 T10181051  RH  078%=      5-min Rain = 0
KVP1 190849Z 34023KT M02/M05 A3011 RMK A01 T10181051  RH  078%=      5-min Rain = 0
KVP1 190850Z 34022KT M02/M05 A3012 RMK A01 T10181051  RH  078%=      5-min Rain = 0
KVP1 190851Z 34023KT M02/M05 A3012 RMK A01 T10171051  RH  078%=      5-min Rain = 0
KVP1 190852Z 33025G33KT M02/M05 A3012 RMK A01 T10181051  RH  078%=      5-min Rain = 0
KVP1 190853Z 34023G28KT M02/M05 A3012 RMK A01 T10181051  RH  078%=      5-min Rain = 0
KVP1 190854Z 34021G26KT M02/M05 A3012 RMK A01 T10181052  RH  078%=      5-min Rain = 0
KVP1 190855Z 34023KT M02/M05 A3012 RMK A01 T10181052  RH  078%=      5-min Rain = 0
KVP1 190856Z 34023KT M02/M05 A3012 RMK A01 T10181052  RH  078%=      5-min Rain = 0
KVP1 190857Z 34024KT M02/M05 A3012 RMK A01 T10181051  RH  078%=      5-min Rain = 0
KVP1 190858Z 34019KT M02/M05 A3012 RMK A01 T10181052  RH  078%=      5-min Rain = 0
KVP1 190859Z 34023G28KT M02/M05 A3012 RMK A01 T10181051  RH  078%=      5-min Rain = 0
KVP1 190900Z 34022G27KT M02/M05 A3012 RMK A01 T10181051  RH  078%=      5-min Rain = 0
KVP1 190901Z 34021KT M02/M05 A3012 RMK A01 T10181051  RH  078%=      5-min Rain = 0
KVP1 190902Z 34019KT M02/M05 A3012 RMK A01 T10181051  RH  078%=      5-min Rain = 0
KVP1 190903Z 34022G27KT M02/M05 A3012 RMK A01 T10181051  RH  078%=      5-min Rain = 0
KVP1 190904Z 34018G23KT M02/M05 A3012 RMK A01 T10181051  RH  078%=      5-min Rain = 0
KVP1 190905Z 34020KT M02/M05 A3012 RMK A01 T10181051  RH  078%=      5-min Rain = 0
KVP1 190906Z 34021KT M02/M05 A3012 RMK A01 T10181050  RH  079%=      5-min Rain = 0
KVP1 190907Z 34021KT M02/M05 A3012 RMK A01 T10181050  RH  079%=      5-min Rain = 0
KVP1 190908Z 34021KT M02/M05 A3012 RMK A01 T10181050  RH  079%=      5-min Rain = 0
KVP1 190909Z 34020G25KT M02/M05 A3012 RMK A01 T10181050  RH  079%=      5-min Rain = 0
KVP1 190910Z 34020KT M02/M05 A3012 RMK A01 T10191050  RH  079%=      5-min Rain = 0
KVP1 190911Z 34024KT M02/M05 A3012 RMK A01 T10191050  RH  079%=      5-min Rain = 0
KVP1 190912Z 34023G28KT M02/M05 A3012 RMK A01 T10191050  RH  079%=      5-min Rain = 0
KVP1 190913Z 34021G27KT M02/M05 A3013 RMK A01 T10191051  RH  079%=      5-min Rain = 0
KVP1 190914Z 34021KT M02/M05 A3013 RMK A01 T10191051  RH  079%=      5-min Rain = 0
KVP1 190915Z 34018KT M02/M05 A3013 RMK A01 T10191051  RH  079%=      5-min Rain = 0
KVP1 190916Z 34021KT M02/M05 A3013 RMK A01 T10201051  RH  079%=      5-min Rain = 0
KVP1 190917Z 34023G29KT M02/M05 A3013 RMK A01 T10201051  RH  079%=      5-min Rain = 0
KVP1 190918Z 34021KT M02/M05 A3013 RMK A01 T10201051  RH  079%=      5-min Rain = 0
KVP1 190919Z 34021KT M02/M05 A3013 RMK A01 T10201052  RH  079%=      5-min Rain = 0
KVP1 190920Z 34017KT M02/M05 A3013 RMK A01 T10201052  RH  079%=      5-min Rain = 0
KVP1 190921Z 34020KT M02/M05 A3013 RMK A01 T10211052  RH  079%=      5-min Rain = 0
KVP1 190922Z 34020G25KT M02/M05 A3014 RMK A01 T10211052  RH  079%=      5-min Rain = 0
KVP1 190923Z 34022KT M02/M05 A3014 RMK A01 T10211052  RH  079%=      5-min Rain = 0
KVP1 190924Z 34025G30KT M02/M05 A3014 RMK A01 T10211053  RH  079%=      5-min Rain = 0
KVP1 190925Z 34026KT M02/M05 A3014 RMK A01 T10211053  RH  079%=      5-min Rain = 0
KVP1 190926Z 34023G29KT M02/M05 A3014 RMK A01 T10201053  RH  078%=      5-min Rain = 0
KVP1 190927Z 34021G27KT M02/M05 A3014 RMK A01 T10211053  RH  078%=      5-min Rain = 0
KVP1 190928Z 34020G25KT M02/M05 A3014 RMK A01 T10211053  RH  079%=      5-min Rain = 0
KVP1 190929Z 34022KT M02/M05 A3014 RMK A01 T10211053  RH  079%=      5-min Rain = 0
KVP1 190930Z 34025KT M02/M05 A3014 RMK A01 T10211053  RH  079%=      5-min Rain = 0
KVP1 190931Z 35022KT M02/M05 A3014 RMK A01 T10211053  RH  079%=      5-min Rain = 0
KVP1 190932Z 35020KT M02/M05 A3014 RMK A01 T10201053  RH  078%=      5-min Rain = 0
KVP1 190933Z 35019KT M02/M05 A3014 RMK A01 T10201053  RH  078%=      5-min Rain = 0
KVP1 190934Z 35016G21KT M02/M05 A3014 RMK A01 T10211053  RH  079%=      5-min Rain = 0
KVP1 190935Z 35016G22KT M02/M05 A3014 RMK A01 T10211053  RH  079%=      5-min Rain = 0
KVP1 190936Z 35016G22KT M02/M05 A3013 RMK A01 T10211053  RH  079%=      5-min Rain = 0
KVP1 190937Z 35019G25KT M02/M05 A3013 RMK A01 T10211052  RH  079%=      5-min Rain = 0
KVP1 190938Z 35018KT M02/M05 A3013 RMK A01 T10211052  RH  079%=      5-min Rain = 0
KVP1 190939Z 34019KT M02/M05 A3014 RMK A01 T10211052  RH  079%=      5-min Rain = 0
KVP1 190940Z 34017G22KT M02/M05 A3013 RMK A01 T10211052  RH  079%=      5-min Rain = 0
KVP1 190941Z 35018KT M02/M05 A3014 RMK A01 T10211052  RH  080%=      5-min Rain = 0
KVP1 190942Z 34017KT M02/M05 A3014 RMK A01 T10221052  RH  080%=      5-min Rain = 0
KVP1 190943Z 34017KT M02/M05 A3014 RMK A01 T10221052  RH  080%=      5-min Rain = 0
KVP1 190944Z 34020KT M02/M05 A3014 RMK A01 T10231052  RH  081%=      5-min Rain = 0
KVP1 190945Z 33021KT M02/M05 A3014 RMK A01 T10231051  RH  081%=      5-min Rain = 0
KVP1 190946Z 33021KT M02/M05 A3013 RMK A01 T10231051  RH  081%=      5-min Rain = 0
KVP1 190947Z 33020KT M02/M05 A3014 RMK A01 T10231050  RH  081%=      5-min Rain = 0
KVP1 190948Z 33021KT M02/M05 A3014 RMK A01 T10231050  RH  081%=      5-min Rain = 0
KVP1 190949Z 33021KT M02/M05 A3014 RMK A01 T10231050  RH  082%=      5-min Rain = 0
KVP1 190950Z 33024KT M02/M05 A3014 RMK A01 T10231050  RH  082%=      5-min Rain = 0
KVP1 190951Z 33022KT M02/M05 A3014 RMK A01 T10231050  RH  082%=      5-min Rain = 0
KVP1 190952Z 33021KT M02/M05 A3014 RMK A01 T10231051  RH  081%=      5-min Rain = 0
KVP1 190953Z 33023KT M02/M05 A3014 RMK A01 T10231051  RH  081%=      5-min Rain = 0
KVP1 190954Z 34022KT M02/M05 A3014 RMK A01 T10241052  RH  081%=      5-min Rain = 0
KVP1 190955Z 34023KT M02/M05 A3014 RMK A01 T10241052  RH  081%=      5-min Rain = 0
KVP1 190956Z 34020G25KT M02/M05 A3014 RMK A01 T10241052  RH  081%=      5-min Rain = 0
KVP1 190957Z 34022KT M03/M05 A3014 RMK A01 T10251053  RH  081%=      5-min Rain = 0
KVP1 190958Z 34020KT M03/M05 A3014 RMK A01 T10251053  RH  081%=      5-min Rain = 0
KVP1 190959Z 34018KT M03/M05 A3014 RMK A01 T10251053  RH  081%=      5-min Rain = 0
KVP1 191000Z 34019KT M03/M05 A3014 RMK A01 T10261054  RH  081%=      5-min Rain = 0
KVP1 191001Z 34019KT M03/M05 A3014 RMK A01 T10261053  RH  082%=      5-min Rain = 0
KVP1 191002Z 33019KT M03/M05 A3014 RMK A01 T10271053  RH  082%=      5-min Rain = 0
KVP1 191003Z 33021KT M03/M05 A3014 RMK A01 T10271053  RH  082%=      5-min Rain = 0
KVP1 191004Z 34020KT M03/M05 A3014 RMK A01 T10271053  RH  082%=      5-min Rain = 0
KVP1 191005Z 33022KT M03/M05 A3014 RMK A01 T10271053  RH  082%=      5-min Rain = 0
KVP1 191006Z 33023KT M03/M05 A3014 RMK A01 T10271053  RH  082%=      5-min Rain = 0
KVP1 191007Z 33021KT M03/M05 A3014 RMK A01 T10271053  RH  082%=      5-min Rain = 0
KVP1 191008Z 33021KT M03/M05 A3014 RMK A01 T10261053  RH  082%=      5-min Rain = 0
KVP1 191009Z 33020KT M03/M05 A3014 RMK A01 T10271053  RH  082%=      5-min Rain = 0
KVP1 191010Z 33020KT M03/M05 A3014 RMK A01 T10271053  RH  082%=      5-min Rain = 0
KVP1 191011Z 33020KT M03/M05 A3015 RMK A01 T10271053  RH  082%=      5-min Rain = 0
KVP1 191012Z 33021KT M03/M05 A3015 RMK A01 T10271053  RH  083%=      5-min Rain = 0
KVP1 191013Z 34021KT M03/M05 A3015 RMK A01 T10271053  RH  083%=      5-min Rain = 0
KVP1 191014Z 34020KT M03/M05 A3015 RMK A01 T10271053  RH  082%=      5-min Rain = 0
KVP1 191015Z 34019G24KT M03/M05 A3014 RMK A01 T10271053  RH  082%=      5-min Rain = 0
KVP1 191016Z 34019KT M03/M05 A3015 RMK A01 T10271054  RH  082%=      5-min Rain = 0
KVP1 191017Z 34018KT M03/M05 A3015 RMK A01 T10271054  RH  082%=      5-min Rain = 0
KVP1 191018Z 34016KT M03/M05 A3015 RMK A01 T10271054  RH  082%=      5-min Rain = 0
KVP1 191019Z 33020KT M03/M05 A3014 RMK A01 T10281054  RH  082%=      5-min Rain = 0
KVP1 191020Z 33022KT M03/M05 A3014 RMK A01 T10281054  RH  082%=      5-min Rain = 0
KVP1 191021Z 34019KT M03/M05 A3014 RMK A01 T10271053  RH  082%=      5-min Rain = 0
KVP1 191022Z 34021KT M03/M05 A3014 RMK A01 T10271054  RH  082%=      5-min Rain = 0
KVP1 191023Z 33019KT M03/M05 A3014 RMK A01 T10271054  RH  081%=      5-min Rain = 0
KVP1 191024Z 33019KT M03/M06 A3014 RMK A01 T10271055  RH  081%=      5-min Rain = 0
KVP1 191025Z 33018KT M03/M06 A3014 RMK A01 T10281055  RH  081%=      5-min Rain = 0
KVP1 191026Z 33017KT M03/M06 A3014 RMK A01 T10281055  RH  082%=      5-min Rain = 0
KVP1 191027Z 33017KT M03/M06 A3014 RMK A01 T10291055  RH  082%=      5-min Rain = 0
KVP1 191028Z 33018KT M03/M06 A3014 RMK A01 T10301056  RH  082%=      5-min Rain = 0
KVP1 191029Z 33018KT M03/M06 A3014 RMK A01 T10301055  RH  083%=      5-min Rain = 0
KVP1 191030Z 33019KT M03/M06 A3014 RMK A01 T10291055  RH  083%=      5-min Rain = 0
KVP1 191031Z 33021KT M03/M06 A3014 RMK A01 T10291055  RH  083%=      5-min Rain = 0
KVP1 191032Z 33020KT M03/M06 A3015 RMK A01 T10291055  RH  082%=      5-min Rain = 0
KVP1 191033Z 33018KT M03/M06 A3014 RMK A01 T10291055  RH  082%=      5-min Rain = 0
KVP1 191034Z 33017KT M03/M06 A3015 RMK A01 T10291055  RH  082%=      5-min Rain = 0
KVP1 191035Z 33016KT M03/M06 A3015 RMK A01 T10301056  RH  082%=      5-min Rain = 0
KVP1 191036Z 33016KT M03/M06 A3015 RMK A01 T10311056  RH  083%=      5-min Rain = 0
KVP1 191037Z 33017KT M03/M06 A3015 RMK A01 T10311056  RH  083%=      5-min Rain = 0
KVP1 191038Z 33019KT M03/M06 A3015 RMK A01 T10311055  RH  083%=      5-min Rain = 0
KVP1 191039Z 33018KT M03/M06 A3015 RMK A01 T10311055  RH  083%=      5-min Rain = 0
KVP1 191040Z 33017KT M03/M06 A3015 RMK A01 T10301055  RH  083%=      5-min Rain = 0
KVP1 191041Z 33019KT M03/M06 A3015 RMK A01 T10301055  RH  083%=      5-min Rain = 0
KVP1 191042Z 33018KT M03/M05 A3015 RMK A01 T10301054  RH  083%=      5-min Rain = 0
KVP1 191043Z 33019KT M03/M06 A3015 RMK A01 T10301055  RH  083%=      5-min Rain = 0
KVP1 191044Z 33018KT M03/M06 A3015 RMK A01 T10301055  RH  083%=      5-min Rain = 0
KVP1 191045Z 33019KT M03/M06 A3015 RMK A01 T10311055  RH  083%=      5-min Rain = 0
KVP1 191046Z 33019KT M03/M06 A3015 RMK A01 T10311055  RH  083%=      5-min Rain = 0
KVP1 191047Z 33018KT M03/M06 A3015 RMK A01 T10301055  RH  083%=      5-min Rain = 0
KVP1 191048Z 33017KT M03/M06 A3015 RMK A01 T10301055  RH  083%=      5-min Rain = 0
KVP1 191049Z 33021KT M03/M06 A3015 RMK A01 T10311055  RH  083%=      5-min Rain = 0
KVP1 191050Z 33018KT M03/M05 A3015 RMK A01 T10301054  RH  083%=      5-min Rain = 0
KVP1 191051Z 33017KT M03/M06 A3015 RMK A01 T10301055  RH  083%=      5-min Rain = 0
KVP1 191052Z 33019KT M03/M06 A3015 RMK A01 T10301055  RH  083%=      5-min Rain = 0
KVP1 191053Z 33019G25KT M03/M05 A3015 RMK A01 T10301054  RH  084%=      5-min Rain = 0
KVP1 191054Z 33019KT M03/M05 A3015 RMK A01 T10301054  RH  083%=      5-min Rain = 0
KVP1 191055Z 33019G24KT M03/M05 A3015 RMK A01 T10291054  RH  083%=      5-min Rain = 0
KVP1 191056Z 33017KT M03/M05 A3015 RMK A01 T10291054  RH  083%=      5-min Rain = 0
KVP1 191057Z 33019KT M03/M05 A3015 RMK A01 T10291054  RH  083%=      5-min Rain = 0
KVP1 191058Z 33019KT M03/M05 A3015 RMK A01 T10291054  RH  083%=      5-min Rain = 0
KVP1 191059Z 33019KT M03/M05 A3015 RMK A01 T10291054  RH  083%=      5-min Rain = 0
KVP1 191100Z 33018KT M03/M05 A3015 RMK A01 T10291054  RH  083%=      5-min Rain = 0
KVP1 191101Z 33020KT M03/M05 A3015 RMK A01 T10291054  RH  083%=      5-min Rain = 0
KVP1 191102Z 33021KT M03/M05 A3015 RMK A01 T10291054  RH  083%=      5-min Rain = 0
KVP1 191103Z 33021KT M03/M05 A3015 RMK A01 T10281053  RH  083%=      5-min Rain = 0
KVP1 191104Z 33019KT M03/M05 A3016 RMK A01 T10281054  RH  083%=      5-min Rain = 0
KVP1 191105Z 33019KT M03/M05 A3016 RMK A01 T10281053  RH  083%=      5-min Rain = 0
KVP1 191106Z 33018KT M03/M05 A3016 RMK A01 T10281053  RH  083%=      5-min Rain = 0
KVP1 191107Z 33019G24KT M03/M05 A3016 RMK A01 T10291054  RH  083%=      5-min Rain = 0
KVP1 191108Z 33021KT M03/M05 A3015 RMK A01 T10291053  RH  083%=      5-min Rain = 0
KVP1 191109Z 33020KT M03/M05 A3015 RMK A01 T10281053  RH  083%=      5-min Rain = 0
KVP1 191110Z 33019KT M03/M05 A3015 RMK A01 T10281053  RH  083%=      5-min Rain = 0
KVP1 191111Z 33021KT M03/M05 A3015 RMK A01 T10281052  RH  083%=      5-min Rain = 0
KVP1 191112Z 33019KT M03/M05 A3015 RMK A01 T10271053  RH  083%=      5-min Rain = 0
KVP1 191113Z 33018KT M03/M05 A3015 RMK A01 T10281053  RH  083%=      5-min Rain = 0
KVP1 191114Z 32016KT M03/M05 A3016 RMK A01 T10281053  RH  083%=      5-min Rain = 0
KVP1 191115Z 32018KT M03/M05 A3016 RMK A01 T10291054  RH  083%=      5-min Rain = 0
KVP1 191116Z 32017KT M03/M05 A3016 RMK A01 T10291053  RH  083%=      5-min Rain = 0
KVP1 191117Z 32016KT M03/M05 A3016 RMK A01 T10301054  RH  084%=      5-min Rain = 0
KVP1 191118Z 32017KT M03/M05 A3016 RMK A01 T10311054  RH  084%=      5-min Rain = 0
KVP1 191119Z 32016KT M03/M05 A3016 RMK A01 T10311054  RH  084%=      5-min Rain = 0
KVP1 191120Z 32017KT M03/M05 A3016 RMK A01 T10311053  RH  085%=      5-min Rain = 0
KVP1 191121Z 32016KT M03/M05 A3016 RMK A01 T10311053  RH  085%=      5-min Rain = 0
KVP1 191122Z 32016KT M03/M05 A3016 RMK A01 T10311053  RH  085%=      5-min Rain = 0
KVP1 191123Z 32018KT M03/M05 A3016 RMK A01 T10321053  RH  085%=      5-min Rain = 0
KVP1 191124Z 32017KT M03/M05 A3016 RMK A01 T10311052  RH  085%=      5-min Rain = 0
KVP1 191125Z 32017KT M03/M05 A3016 RMK A01 T10321053  RH  085%=      5-min Rain = 0
KVP1 191126Z 32015KT M03/M05 A3016 RMK A01 T10321053  RH  085%=      5-min Rain = 0
KVP1 191127Z 32015KT M03/M05 A3016 RMK A01 T10331054  RH  086%=      5-min Rain = 0
KVP1 191128Z 32015KT M03/M05 A3016 RMK A01 T10331054  RH  086%=      5-min Rain = 0
KVP1 191129Z 32016KT M03/M05 A3016 RMK A01 T10341054  RH  086%=      5-min Rain = 0
KVP1 191130Z 32015KT M03/M05 A3016 RMK A01 T10331053  RH  086%=      5-min Rain = 0
KVP1 191131Z 33015KT M03/M05 A3016 RMK A01 T10331053  RH  086%=      5-min Rain = 0
KVP1 191132Z 33016KT M03/M05 A3016 RMK A01 T10341053  RH  086%=      5-min Rain = 0
KVP1 191133Z 33017KT M03/M05 A3016 RMK A01 T10341053  RH  087%=      5-min Rain = 0
KVP1 191134Z 32016KT M03/M05 A3016 RMK A01 T10341053  RH  087%=      5-min Rain = 0
KVP1 191135Z 33016KT M03/M05 A3016 RMK A01 T10341053  RH  087%=      5-min Rain = 0
KVP1 191136Z 32016KT M03/M05 A3016 RMK A01 T10341053  RH  087%=      5-min Rain = 0
KVP1 191137Z 32017KT M03/M05 A3016 RMK A01 T10331052  RH  087%=      5-min Rain = 0
KVP1 191138Z 32017KT M03/M05 A3016 RMK A01 T10331052  RH  087%=      5-min Rain = 0
KVP1 191139Z 32018KT M03/M05 A3016 RMK A01 T10331052  RH  087%=      5-min Rain = 0
KVP1 191140Z 32016KT M03/M05 A3016 RMK A01 T10331052  RH  087%=      5-min Rain = 0
KVP1 191141Z 32017KT M03/M05 A3016 RMK A01 T10331052  RH  087%=      5-min Rain = 0
KVP1 191142Z 32017KT M03/M05 A3017 RMK A01 T10331052  RH  087%=      5-min Rain = 0
KVP1 191143Z 32017KT M03/M05 A3017 RMK A01 T10331052  RH  087%=      5-min Rain = 0
KVP1 191144Z 33016KT M03/M05 A3017 RMK A01 T10331052  RH  087%=      5-min Rain = 0
KVP1 191145Z 33018KT M03/M05 A3017 RMK A01 T10331051  RH  087%=      5-min Rain = 0
KVP1 191146Z 32017KT M03/M05 A3017 RMK A01 T10331051  RH  087%=      5-min Rain = 0
KVP1 191147Z 32019KT M03/M05 A3017 RMK A01 T10331051  RH  087%=      5-min Rain = 0
KVP1 191148Z 33018KT M03/M05 A3017 RMK A01 T10321050  RH  087%=      5-min Rain = 0
KVP1 191149Z 33016KT M03/M05 A3017 RMK A01 T10311050  RH  087%=      5-min Rain = 0
KVP1 191150Z 33017KT M03/M05 A3017 RMK A01 T10311051  RH  087%=      5-min Rain = 0
KVP1 191151Z 33018KT M03/M05 A3017 RMK A01 T10321051  RH  087%=      5-min Rain = 0
KVP1 191152Z 33018KT M03/M05 A3017 RMK A01 T10311050  RH  087%=      5-min Rain = 0
KVP1 191153Z 33019KT M03/M05 A3017 RMK A01 T10301049  RH  086%=      5-min Rain = 0
KVP1 191154Z 33018KT M03/M05 A3017 RMK A01 T10301051  RH  086%=      5-min Rain = 0
KVP1 191155Z 33017KT M03/M05 A3017 RMK A01 T10301051  RH  086%=      5-min Rain = 0
KVP1 191156Z 33016KT M03/M05 A3017 RMK A01 T10301051  RH  086%=      5-min Rain = 0
KVP1 191157Z 33015KT M03/M05 A3017 RMK A01 T10301050  RH  086%=      5-min Rain = 0
KVP1 191158Z 34014KT M03/M05 A3017 RMK A01 T10311051  RH  086%=      5-min Rain = 0
KVP1 191159Z 33015KT M03/M05 A3017 RMK A01 T10311051  RH  086%=      5-min Rain = 0
KVP1 191200Z 33014KT M03/M05 A3017 RMK A01 T10321051  RH  086%=      5-min Rain = 0
KVP1 191201Z 33014KT M03/M05 A3017 RMK A01 T10321052  RH  086%=      5-min Rain = 0
KVP1 191202Z 33016KT M03/M05 A3017 RMK A01 T10331052  RH  087%=      5-min Rain = 0
KVP1 191203Z 33015KT M03/M05 A3017 RMK A01 T10331051  RH  087%=      5-min Rain = 0
KVP1 191204Z 34016G21KT M03/M05 A3017 RMK A01 T10321051  RH  087%=      5-min Rain = 0
KVP1 191205Z 33014KT M03/M05 A3017 RMK A01 T10321051  RH  087%=      5-min Rain = 0
KVP1 191206Z 34017KT M03/M05 A3017 RMK A01 T10321052  RH  086%=      5-min Rain = 0
KVP1 191207Z 33017KT M03/M05 A3017 RMK A01 T10321051  RH  087%=      5-min Rain = 0
KVP1 191208Z 33016KT M03/M05 A3017 RMK A01 T10311051  RH  087%=      5-min Rain = 0
KVP1 191209Z 33017KT M03/M05 A3017 RMK A01 T10321051  RH  086%=      5-min Rain = 0
KVP1 191210Z 33016KT M03/M05 A3017 RMK A01 T10311051  RH  086%=      5-min Rain = 0
KVP1 191211Z 34017KT M03/M05 A3017 RMK A01 T10311051  RH  086%=      5-min Rain = 0
KVP1 191212Z 34018KT M03/M05 A3017 RMK A01 T10311051  RH  086%=      5-min Rain = 0
KVP1 191213Z 34019KT M03/M05 A3017 RMK A01 T10311050  RH  086%=      5-min Rain = 0
KVP1 191214Z 33017KT M03/M05 A3018 RMK A01 T10311051  RH  086%=      5-min Rain = 0
KVP1 191215Z 34018KT M03/M05 A3018 RMK A01 T10311051  RH  086%=      5-min Rain = 0
KVP1 191216Z 34020KT M03/M05 A3018 RMK A01 T10311051  RH  086%=      5-min Rain = 0
KVP1 191217Z 34017KT M03/M05 A3018 RMK A01 T10301051  RH  086%=      5-min Rain = 0
KVP1 191218Z 34017KT M03/M05 A3018 RMK A01 T10301051  RH  086%=      5-min Rain = 0
KVP1 191219Z 34016KT M03/M05 A3018 RMK A01 T10301051  RH  086%=      5-min Rain = 0
KVP1 191220Z 33018KT M03/M05 A3018 RMK A01 T10301051  RH  086%=      5-min Rain = 0
KVP1 191221Z 34016KT M03/M05 A3018 RMK A01 T10311051  RH  086%=      5-min Rain = 0
KVP1 191222Z 33019KT M03/M05 A3018 RMK A01 T10311051  RH  086%=      5-min Rain = 0
KVP1 191223Z 33018KT M03/M05 A3018 RMK A01 T10311051  RH  086%=      5-min Rain = 0
KVP1 191224Z 34017KT M03/M05 A3018 RMK A01 T10311051  RH  086%=      5-min Rain = 0
KVP1 191225Z 33018KT M03/M05 A3018 RMK A01 T10311051  RH  086%=      5-min Rain = 0
KVP1 191226Z 34016KT M03/M05 A3018 RMK A01 T10311052  RH  086%=      5-min Rain = 0
KVP1 191227Z 33017KT M03/M05 A3018 RMK A01 T10311052  RH  086%=      5-min Rain = 0
KVP1 191228Z 34016KT M03/M05 A3018 RMK A01 T10311051  RH  086%=      5-min Rain = 0
KVP1 191229Z 34014KT M03/M05 A3018 RMK A01 T10311051  RH  086%=      5-min Rain = 0
KVP1 191230Z 34013KT M03/M05 A3018 RMK A01 T10321052  RH  086%=      5-min Rain = 0
KVP1 191231Z 34015KT M03/M05 A3018 RMK A01 T10321052  RH  086%=      5-min Rain = 0
KVP1 191232Z 33015KT M03/M05 A3018 RMK A01 T10331052  RH  086%=      5-min Rain = 0
KVP1 191233Z 34015KT M03/M05 A3019 RMK A01 T10331052  RH  086%=      5-min Rain = 0
KVP1 191234Z 33016KT M03/M05 A3019 RMK A01 T10321052  RH  086%=      5-min Rain = 0
KVP1 191235Z 33015KT M03/M05 A3019 RMK A01 T10321052  RH  086%=      5-min Rain = 0
KVP1 191236Z 34017KT M03/M05 A3019 RMK A01 T10321052  RH  086%=      5-min Rain = 0
KVP1 191237Z 34016KT M03/M05 A3019 RMK A01 T10321052  RH  086%=      5-min Rain = 0
KVP1 191238Z 34016KT M03/M05 A3019 RMK A01 T10321052  RH  086%=      5-min Rain = 0
KVP1 191239Z 34016KT M03/M05 A3019 RMK A01 T10311052  RH  086%=      5-min Rain = 0
KVP1 191240Z 34015KT M03/M05 A3019 RMK A01 T10311052  RH  086%=      5-min Rain = 0
KVP1 191241Z 34014KT M03/M05 A3019 RMK A01 T10321052  RH  086%=      5-min Rain = 0
KVP1 191242Z 34013KT M03/M05 A3019 RMK A01 T10331053  RH  086%=      5-min Rain = 0
KVP1 191243Z 34014KT M03/M05 A3019 RMK A01 T10341053  RH  086%=      5-min Rain = 0
KVP1 191244Z 34015KT M03/M05 A3019 RMK A01 T10341053  RH  087%=      5-min Rain = 0
KVP1 191245Z 34016KT M03/M05 A3019 RMK A01 T10341053  RH  087%=      5-min Rain = 0
KVP1 191246Z 34016KT M03/M05 A3019 RMK A01 T10331052  RH  087%=      5-min Rain = 0
KVP1 191247Z 34016KT M03/M05 A3019 RMK A01 T10331052  RH  086%=      5-min Rain = 0
KVP1 191248Z 34016KT M03/M05 A3019 RMK A01 T10321052  RH  086%=      5-min Rain = 0
KVP1 191249Z 34013KT M03/M05 A3019 RMK A01 T10321052  RH  086%=      5-min Rain = 0
KVP1 191250Z 34016KT M03/M05 A3019 RMK A01 T10321052  RH  086%=      5-min Rain = 0
KVP1 191251Z 34017KT M03/M05 A3019 RMK A01 T10321052  RH  086%=      5-min Rain = 0
KVP1 191252Z 34016KT M03/M05 A3019 RMK A01 T10321052  RH  086%=      5-min Rain = 0
KVP1 191253Z 34015KT M03/M05 A3019 RMK A01 T10321052  RH  086%=      5-min Rain = 0
KVP1 191254Z 34016KT M03/M05 A3019 RMK A01 T10321053  RH  086%=      5-min Rain = 0
KVP1 191255Z 34016KT M03/M05 A3019 RMK A01 T10321053  RH  086%=      5-min Rain = 0
KVP1 191256Z 34014KT M03/M05 A3019 RMK A01 T10321052  RH  086%=      5-min Rain = 0
KVP1 191257Z 34016KT M03/M05 A3019 RMK A01 T10331053  RH  086%=      5-min Rain = 0
KVP1 191258Z 34017KT M03/M05 A3019 RMK A01 T10331053  RH  086%=      5-min Rain = 0
KVP1 191259Z 34017KT M03/M05 A3019 RMK A01 T10321052  RH  086%=      5-min Rain = 0
KVP1 191300Z 34017KT M03/M05 A3019 RMK A01 T10311052  RH  086%=      5-min Rain = 0
KVP1 191301Z 34018KT M03/M05 A3019 RMK A01 T10311052  RH  085%=      5-min Rain = 0
KVP1 191302Z 34017KT M03/M05 A3019 RMK A01 T10311052  RH  085%=      5-min Rain = 0
KVP1 191303Z 34017G22KT M03/M05 A3019 RMK A01 T10301052  RH  085%=      5-min Rain = 0
KVP1 191304Z 34019KT M03/M05 A3019 RMK A01 T10301052  RH  085%=      5-min Rain = 0
KVP1 191305Z 34017KT M03/M05 A3019 RMK A01 T10291051  RH  084%=      5-min Rain = 0
KVP1 191306Z 34016KT M03/M05 A3019 RMK A01 T10281052  RH  084%=      5-min Rain = 0
KVP1 191307Z 34017KT M03/M05 A3019 RMK A01 T10291052  RH  084%=      5-min Rain = 0
KVP1 191308Z 34016KT M03/M05 A3019 RMK A01 T10291052  RH  084%=      5-min Rain = 0
KVP1 191309Z 34018KT M03/M05 A302 RMK A01 T10291052  RH  084%=      5-min Rain = 0
KVP1 191310Z 34019KT M03/M05 A302 RMK A01 T10291052  RH  084%=      5-min Rain = 0
KVP1 191311Z 35015G20KT M03/M05 A302 RMK A01 T10281052  RH  084%=      5-min Rain = 0
KVP1 191312Z 35015KT M03/M05 A302 RMK A01 T10281052  RH  083%=      5-min Rain = 0
KVP1 191313Z 35017KT M03/M05 A302 RMK A01 T10281052  RH  083%=      5-min Rain = 0
KVP1 191314Z 35015KT M03/M05 A302 RMK A01 T10281052  RH  083%=      5-min Rain = 0
KVP1 191315Z 35014KT M03/M05 A302 RMK A01 T10281053  RH  083%=      5-min Rain = 0
KVP1 191316Z 35014G20KT M03/M05 A302 RMK A01 T10281053  RH  083%=      5-min Rain = 0
KVP1 191317Z 34015KT M03/M05 A302 RMK A01 T10281053  RH  083%=      5-min Rain = 0
KVP1 191318Z 34013KT M03/M05 A3021 RMK A01 T10281053  RH  083%=      5-min Rain = 0
KVP1 191319Z 35015KT M03/M05 A3021 RMK A01 T10281053  RH  083%=      5-min Rain = 0
KVP1 191320Z 35015KT M03/M05 A3021 RMK A01 T10281053  RH  083%=      5-min Rain = 0
KVP1 191321Z 34016KT M03/M05 A3021 RMK A01 T10291053  RH  083%=      5-min Rain = 0
KVP1 191322Z 34013KT M03/M05 A3021 RMK A01 T10291053  RH  084%=      5-min Rain = 0
KVP1 191323Z 35015KT M03/M05 A3021 RMK A01 T10291053  RH  084%=      5-min Rain = 0
KVP1 191324Z 34016KT M03/M05 A3021 RMK A01 T10291053  RH  084%=      5-min Rain = 0
KVP1 191325Z 34017KT M03/M05 A3022 RMK A01 T10291053  RH  084%=      5-min Rain = 0
KVP1 191326Z 34015KT M03/M05 A3022 RMK A01 T10291053  RH  083%=      5-min Rain = 0
KVP1 191327Z 34015KT M03/M05 A3022 RMK A01 T10291053  RH  083%=      5-min Rain = 0
KVP1 191328Z 34015KT M03/M05 A3022 RMK A01 T10291053  RH  083%=      5-min Rain = 0
KVP1 191329Z 35015KT M03/M05 A3022 RMK A01 T10291053  RH  084%=      5-min Rain = 0
KVP1 191330Z 34015KT M03/M05 A3022 RMK A01 T10291053  RH  084%=      5-min Rain = 0
KVP1 191331Z 34015KT M03/M05 A3022 RMK A01 T10291053  RH  083%=      5-min Rain = 0
KVP1 191332Z 35017KT M03/M05 A3022 RMK A01 T10281053  RH  083%=      5-min Rain = 0
KVP1 191333Z 34017KT M03/M05 A3022 RMK A01 T10281053  RH  083%=      5-min Rain = 0
KVP1 191334Z 34017KT M03/M05 A3022 RMK A01 T10281053  RH  083%=      5-min Rain = 0
KVP1 191335Z 34014KT M03/M05 A3022 RMK A01 T10281053  RH  083%=      5-min Rain = 0
KVP1 191336Z 34013KT M03/M05 A3022 RMK A01 T10291053  RH  083%=      5-min Rain = 0
KVP1 191337Z 34013KT M03/M05 A3022 RMK A01 T10291054  RH  084%=      5-min Rain = 0
KVP1 191338Z 34013KT M03/M05 A3022 RMK A01 T10301054  RH  084%=      5-min Rain = 0
KVP1 191339Z 35015KT M03/M05 A3022 RMK A01 T10301054  RH  084%=      5-min Rain = 0
KVP1 191340Z 34015KT M03/M05 A3022 RMK A01 T10301053  RH  084%=      5-min Rain = 0
KVP1 191341Z 35016KT M03/M05 A3022 RMK A01 T10301053  RH  084%=      5-min Rain = 0
KVP1 191342Z 35014KT M03/M05 A3022 RMK A01 T10301053  RH  084%=      5-min Rain = 0
KVP1 191343Z 35014KT M03/M05 A3022 RMK A01 T10291053  RH  084%=      5-min Rain = 0
KVP1 191344Z 35014KT M03/M05 A3022 RMK A01 T10301053  RH  084%=      5-min Rain = 0
KVP1 191345Z 35014KT M03/M05 A3022 RMK A01 T10301053  RH  084%=      5-min Rain = 0
KVP1 191346Z 35013KT M03/M05 A3022 RMK A01 T10301054  RH  084%=      5-min Rain = 0
KVP1 191347Z 35013KT M03/M05 A3022 RMK A01 T10301054  RH  084%=      5-min Rain = 0
KVP1 191348Z 35014G19KT M03/M05 A3022 RMK A01 T10311054  RH  084%=      5-min Rain = 0
KVP1 191349Z 35014KT M03/M05 A3022 RMK A01 T10301053  RH  084%=      5-min Rain = 0
KVP1 191350Z 35014G19KT M03/M05 A3022 RMK A01 T10301054  RH  084%=      5-min Rain = 0
KVP1 191351Z 34016KT M03/M05 A3023 RMK A01 T10301053  RH  084%=      5-min Rain = 0
KVP1 191352Z 35014KT M03/M05 A3023 RMK A01 T10301053  RH  084%=      5-min Rain = 0
KVP1 191353Z 35014KT M03/M05 A3023 RMK A01 T10311054  RH  084%=      5-min Rain = 0
KVP1 191354Z 35015KT M03/M05 A3023 RMK A01 T10311054  RH  084%=      5-min Rain = 0
KVP1 191355Z 35015G21KT M03/M05 A3023 RMK A01 T10311054  RH  084%=      5-min Rain = 0
KVP1 191356Z 34016KT M03/M05 A3023 RMK A01 T10311054  RH  084%=      5-min Rain = 0
KVP1 191357Z 35017KT M03/M05 A3023 RMK A01 T10311054  RH  084%=      5-min Rain = 0
KVP1 191358Z 35015KT M03/M05 A3023 RMK A01 T10301053  RH  084%=      5-min Rain = 0
KVP1 191359Z 35014G20KT M03/M05 A3023 RMK A01 T10301053  RH  084%=      5-min Rain = 0
KVP1 191400Z 35013G18KT M03/M05 A3023 RMK A01 T10301054  RH  084%=      5-min Rain = 0
KVP1 191401Z 35015KT M03/M06 A3023 RMK A01 T10311055  RH  084%=      5-min Rain = 0
KVP1 191402Z 35013KT M03/M06 A3023 RMK A01 T10321055  RH  084%=      5-min Rain = 0
KVP1 191403Z 34015G20KT M03/M05 A3023 RMK A01 T10321054  RH  085%=      5-min Rain = 0
KVP1 191404Z 34016KT M03/M05 A3023 RMK A01 T10321054  RH  085%=      5-min Rain = 0
KVP1 191405Z 34016KT M03/M05 A3023 RMK A01 T10311053  RH  085%=      5-min Rain = 0
KVP1 191406Z 34015KT M03/M05 A3023 RMK A01 T10311054  RH  084%=      5-min Rain = 0
KVP1 191407Z 34015G20KT M03/M05 A3023 RMK A01 T10311054  RH  084%=      5-min Rain = 0
KVP1 191408Z 34015KT M03/M05 A3023 RMK A01 T10311054  RH  084%=      5-min Rain = 0
KVP1 191409Z 34013KT M03/M05 A3023 RMK A01 T10311054  RH  084%=      5-min Rain = 0
KVP1 191410Z 34015G20KT M03/M05 A3023 RMK A01 T10311054  RH  084%=      5-min Rain = 0
KVP1 191411Z 34014KT M03/M05 A3024 RMK A01 T10311054  RH  084%=      5-min Rain = 0
KVP1 191412Z 34016G21KT M03/M05 A3024 RMK A01 T10301054  RH  084%=      5-min Rain = 0
KVP1 191413Z 34015KT M03/M05 A3024 RMK A01 T10311054  RH  084%=      5-min Rain = 0
KVP1 191414Z 34014KT M03/M05 A3024 RMK A01 T10301053  RH  084%=      5-min Rain = 0
KVP1 191415Z 34015KT M03/M05 A3024 RMK A01 T10311054  RH  084%=      5-min Rain = 0
KVP1 191416Z 34015G20KT M03/M05 A3024 RMK A01 T10311054  RH  084%=      5-min Rain = 0
KVP1 191417Z 34015KT M03/M05 A3024 RMK A01 T10311054  RH  084%=      5-min Rain = 0
KVP1 191418Z 34015KT M03/M05 A3024 RMK A01 T10301053  RH  084%=      5-min Rain = 0
KVP1 191419Z 34014KT M03/M05 A3024 RMK A01 T10301053  RH  084%=      5-min Rain = 0
KVP1 191420Z 34013KT M03/M05 A3024 RMK A01 T10301053  RH  084%=      5-min Rain = 0
KVP1 191421Z 34014KT M03/M05 A3024 RMK A01 T10301053  RH  084%=      5-min Rain = 0
KVP1 191422Z 34015KT M03/M05 A3024 RMK A01 T10301053  RH  084%=      5-min Rain = 0
KVP1 191423Z 34014KT M03/M05 A3025 RMK A01 T10291053  RH  084%=      5-min Rain = 0
KVP1 191424Z 34013KT M03/M05 A3025 RMK A01 T10291053  RH  084%=      5-min Rain = 0
KVP1 191425Z 34015KT M03/M05 A3025 RMK A01 T10291053  RH  084%=      5-min Rain = 0
KVP1 191426Z 34016KT M03/M05 A3025 RMK A01 T10291052  RH  084%=      5-min Rain = 0
KVP1 191427Z 34015KT M03/M05 A3025 RMK A01 T10281052  RH  084%=      5-min Rain = 0
KVP1 191428Z 34016KT M03/M05 A3025 RMK A01 T10281052  RH  083%=      5-min Rain = 0
KVP1 191429Z 34014KT M03/M05 A3025 RMK A01 T10281052  RH  083%=      5-min Rain = 0
KVP1 191430Z 34014KT M03/M05 A3025 RMK A01 T10271052  RH  083%=      5-min Rain = 0
KVP1 191431Z 34013KT M03/M05 A3025 RMK A01 T10271052  RH  083%=      5-min Rain = 0
KVP1 191432Z 34015KT M03/M05 A3025 RMK A01 T10261051  RH  083%=      5-min Rain = 0
KVP1 191433Z 34014KT M03/M05 A3025 RMK A01 T10261051  RH  083%=      5-min Rain = 0
KVP1 191434Z 34016KT M03/M05 A3025 RMK A01 T10251051  RH  083%=      5-min Rain = 0
KVP1 191435Z 34015KT M03/M05 A3026 RMK A01 T10251051  RH  082%=      5-min Rain = 0
KVP1 191436Z 34015KT M02/M05 A3026 RMK A01 T10241051  RH  082%=      5-min Rain = 0
KVP1 191437Z 34015KT M02/M05 A3026 RMK A01 T10241051  RH  082%=      5-min Rain = 0
KVP1 191438Z 34015G20KT M02/M05 A3026 RMK A01 T10231051  RH  082%=      5-min Rain = 0
KVP1 191439Z 34017KT M02/M05 A3026 RMK A01 T10231050  RH  081%=      5-min Rain = 0
KVP1 191440Z 34017KT M02/M05 A3026 RMK A01 T10221050  RH  081%=      5-min Rain = 0
KVP1 191441Z 34015KT M02/M05 A3026 RMK A01 T10221051  RH  081%=      5-min Rain = 0
KVP1 191442Z 34013KT M02/M05 A3026 RMK A01 T10221051  RH  081%=      5-min Rain = 0
KVP1 191443Z 34016KT M02/M05 A3026 RMK A01 T10211050  RH  080%=      5-min Rain = 0
KVP1 191444Z 35015KT M02/M05 A3027 RMK A01 T10211051  RH  080%=      5-min Rain = 0
KVP1 191445Z 34016KT M02/M05 A3027 RMK A01 T10211050  RH  080%=      5-min Rain = 0
KVP1 191446Z 34015KT M02/M05 A3026 RMK A01 T10201050  RH  080%=      5-min Rain = 0
KVP1 191447Z 34014KT M02/M05 A3027 RMK A01 T10201050  RH  080%=      5-min Rain = 0
KVP1 191448Z 34013G19KT M02/M05 A3027 RMK A01 T10191050  RH  080%=      5-min Rain = 0
KVP1 191449Z 34015KT M02/M05 A3027 RMK A01 T10191049  RH  080%=      5-min Rain = 0
KVP1 191450Z 34016KT M02/M05 A3027 RMK A01 T10181049  RH  079%=      5-min Rain = 0
KVP1 191451Z 34017KT M02/M05 A3027 RMK A01 T10181050  RH  079%=      5-min Rain = 0
KVP1 191452Z 34015KT M02/M05 A3027 RMK A01 T10181050  RH  079%=      5-min Rain = 0
KVP1 191453Z 35016KT M02/M05 A3027 RMK A01 T10181050  RH  079%=      5-min Rain = 0
KVP1 191454Z 34016KT M02/M05 A3027 RMK A01 T10181050  RH  079%=      5-min Rain = 0
KVP1 191455Z 34016KT M02/M05 A3027 RMK A01 T10181049  RH  079%=      5-min Rain = 0
KVP1 191456Z 34016KT M02/M05 A3027 RMK A01 T10171049  RH  079%=      5-min Rain = 0
KVP1 191457Z 34016KT M02/M05 A3027 RMK A01 T10171049  RH  079%=      5-min Rain = 0
KVP1 191458Z 34018G23KT M02/M05 A3027 RMK A01 T10161048  RH  079%=      5-min Rain = 0
KVP1 191459Z 34019KT M02/M05 A3027 RMK A01 T10161049  RH  078%=      5-min Rain = 0
KVP1 191500Z 34018KT M02/M05 A3027 RMK A01 T10161049  RH  078%=      5-min Rain = 0
KVP1 191501Z 34019G24KT M02/M05 A3027 RMK A01 T10161049  RH  078%=      5-min Rain = 0
KVP1 191502Z 34018KT M02/M05 A3027 RMK A01 T10151049  RH  078%=      5-min Rain = 0
KVP1 191503Z 34019KT M02/M05 A3027 RMK A01 T10151049  RH  078%=      5-min Rain = 0
KVP1 191504Z 35020KT M02/M05 A3027 RMK A01 T10151049  RH  077%=      5-min Rain = 0
KVP1 191505Z 34015G21KT M02/M05 A3027 RMK A01 T10151049  RH  077%=      5-min Rain = 0
KVP1 191506Z 34018G23KT M01/M05 A3027 RMK A01 T10141048  RH  077%=      5-min Rain = 0
KVP1 191507Z 34019KT M01/M05 A3027 RMK A01 T10141049  RH  077%=      5-min Rain = 0
KVP1 191508Z 34015KT M01/M05 A3028 RMK A01 T10141049  RH  077%=      5-min Rain = 0
KVP1 191509Z 34014G20KT M01/M05 A3028 RMK A01 T10131048  RH  077%=      5-min Rain = 0
KVP1 191510Z 35016KT M01/M05 A3028 RMK A01 T10121047  RH  077%=      5-min Rain = 0
KVP1 191511Z 34018KT M01/M05 A3028 RMK A01 T10111048  RH  076%=      5-min Rain = 0
KVP1 191512Z 34016KT M01/M05 A3028 RMK A01 T10121049  RH  076%=      5-min Rain = 0
KVP1 191513Z 34020KT M01/M05 A3028 RMK A01 T10121048  RH  076%=      5-min Rain = 0
KVP1 191514Z 35015KT M01/M05 A3028 RMK A01 T10121049  RH  076%=      5-min Rain = 0
KVP1 191515Z 35017G23KT M01/M05 A3028 RMK A01 T10121049  RH  076%=      5-min Rain = 0
KVP1 191516Z 35013KT M01/M05 A3028 RMK A01 T10121049  RH  076%=      5-min Rain = 0
KVP1 191517Z 35013KT M01/M05 A3028 RMK A01 T10121049  RH  076%=      5-min Rain = 0
KVP1 191518Z 35017G22KT M01/M05 A3028 RMK A01 T10111048  RH  076%=      5-min Rain = 0
KVP1 191519Z 35019KT M01/M05 A3028 RMK A01 T10121050  RH  075%=      5-min Rain = 0
KVP1 191520Z 36016KT M01/M05 A3028 RMK A01 T10131051  RH  075%=      5-min Rain = 0
KVP1 191521Z 36016KT M01/M05 A3028 RMK A01 T10131051  RH  075%=      5-min Rain = 0
KVP1 191522Z 35015KT M01/M05 A3028 RMK A01 T10131050  RH  076%=      5-min Rain = 0
KVP1 191523Z 35015KT M01/M05 A3028 RMK A01 T10121050  RH  076%=      5-min Rain = 0
KVP1 191524Z 35017KT M01/M05 A3028 RMK A01 T10121049  RH  076%=      5-min Rain = 0
KVP1 191525Z 35014KT M01/M05 A3028 RMK A01 T10111049  RH  076%=      5-min Rain = 0
KVP1 191526Z 36015KT M01/M05 A3028 RMK A01 T10111049  RH  075%=      5-min Rain = 0
KVP1 191527Z 35014KT M01/M05 A3028 RMK A01 T10101050  RH  075%=      5-min Rain = 0
KVP1 191528Z 35014KT M01/M05 A3029 RMK A01 T10101049  RH  075%=      5-min Rain = 0
KVP1 191529Z 36015KT M01/M05 A3029 RMK A01 T10101049  RH  075%=      5-min Rain = 0
KVP1 191530Z 36013KT M01/M05 A3029 RMK A01 T10091049  RH  075%=      5-min Rain = 0
KVP1 191531Z 34016KT M01/M05 A3029 RMK A01 T10091049  RH  074%=      5-min Rain = 0
KVP1 191532Z 34016KT M01/M05 A3029 RMK A01 T10081049  RH  074%=      5-min Rain = 0
KVP1 191533Z 35016KT M01/M05 A3029 RMK A01 T10071047  RH  074%=      5-min Rain = 0
KVP1 191534Z 34016KT M01/M05 A3029 RMK A01 T10061048  RH  073%=      5-min Rain = 0
KVP1 191535Z 34015KT M01/M05 A3029 RMK A01 T10061048  RH  073%=      5-min Rain = 0
KVP1 191536Z 35017KT M01/M05 A3029 RMK A01 T10061049  RH  073%=      5-min Rain = 0
KVP1 191537Z 34015KT M01/M05 A3029 RMK A01 T10081050  RH  073%=      5-min Rain = 0
KVP1 191538Z 34017KT M01/M05 A3029 RMK A01 T10081050  RH  073%=      5-min Rain = 0
KVP1 191539Z 34017KT M01/M05 A3029 RMK A01 T10081049  RH  073%=      5-min Rain = 0
KVP1 191540Z 34016KT M01/M05 A3029 RMK A01 T10081049  RH  073%=      5-min Rain = 0
KVP1 191541Z 35014KT M01/M05 A3029 RMK A01 T10071049  RH  073%=      5-min Rain = 0
KVP1 191542Z 34015KT M01/M05 A3029 RMK A01 T10071049  RH  073%=      5-min Rain = 0
KVP1 191543Z 34016KT M01/M05 A3029 RMK A01 T10051047  RH  073%=      5-min Rain = 0
KVP1 191544Z 34018KT M01/M05 A3029 RMK A01 T10051048  RH  073%=      5-min Rain = 0
KVP1 191545Z 34015KT M00/M05 A3029 RMK A01 T10041048  RH  073%=      5-min Rain = 0
KVP1 191546Z 35018KT M00/M05 A3029 RMK A01 T10041048  RH  072%=      5-min Rain = 0
KVP1 191547Z 34017KT M00/M05 A3029 RMK A01 T10031048  RH  072%=      5-min Rain = 0
KVP1 191548Z 34015KT M00/M05 A3029 RMK A01 T10021047  RH  072%=      5-min Rain = 0
KVP1 191549Z 34018KT M00/M05 A3029 RMK A01 T10011046  RH  071%=      5-min Rain = 0
KVP1 191550Z 34018G23KT 00/05 A3029 RMK A01 T00-00-47  RH  071%=      5-min Rain = 0
KVP1 191551Z 34016KT 00/05 A3029 RMK A01 T00-00-47  RH  071%=      5-min Rain = 0
KVP1 191552Z 35015KT 00/M05 A3029 RMK A01 T00011045  RH  071%=      5-min Rain = 0
KVP1 191553Z 35016KT 00/M05 A3029 RMK A01 T00021046  RH  070%=      5-min Rain = 0
KVP1 191554Z 34015KT 00/M05 A3029 RMK A01 T00021046  RH  070%=      5-min Rain = 0
KVP1 191555Z 34015KT 00/M04 A3029 RMK A01 T00041043  RH  071%=      5-min Rain = 0
KVP1 191556Z 34021KT 01/M04 A3029 RMK A01 T00051044  RH  069%=      5-min Rain = 0
KVP1 191557Z 34019KT 00/M05 A3029 RMK A01 T00031048  RH  069%=      5-min Rain = 0
KVP1 191558Z 34021KT 00/M05 A3029 RMK A01 T00031047  RH  069%=      5-min Rain = 0
KVP1 191559Z 34018KT 00/M05 A3029 RMK A01 T00031047  RH  069%=      5-min Rain = 0
KVP1 191600Z 34020KT 00/M05 A3029 RMK A01 T00041045  RH  070%=      5-min Rain = 0
KVP1 191601Z 34021KT 01/M05 A3029 RMK A01 T00051045  RH  069%=      5-min Rain = 0
KVP1 191602Z 34021KT 01/M05 A3029 RMK A01 T00061045  RH  069%=      5-min Rain = 0
KVP1 191603Z 34020KT 01/M05 A3029 RMK A01 T00061046  RH  068%=      5-min Rain = 0
KVP1 191604Z 34018KT 01/M05 A3029 RMK A01 T00051046  RH  068%=      5-min Rain = 0
KVP1 191605Z 34018KT 01/M05 A3029 RMK A01 T00061045  RH  069%=      5-min Rain = 0
KVP1 191606Z 34018KT 01/M05 A3029 RMK A01 T00071045  RH  068%=      5-min Rain = 0
KVP1 191607Z 34017KT 01/M05 A3029 RMK A01 T00061046  RH  068%=      5-min Rain = 0
KVP1 191608Z 34017KT 01/M05 A3029 RMK A01 T00061045  RH  068%=      5-min Rain = 0
KVP1 191609Z 34018KT 01/M05 A3029 RMK A01 T00071045  RH  068%=      5-min Rain = 0
KVP1 191610Z 34018KT 01/M05 A3029 RMK A01 T00081045  RH  068%=      5-min Rain = 0
KVP1 191611Z 34018KT 01/M05 A3029 RMK A01 T00081045  RH  068%=      5-min Rain = 0
KVP1 191612Z 34019KT 01/M05 A3029 RMK A01 T00081045  RH  067%=      5-min Rain = 0
KVP1 191613Z 34017KT 01/M04 A303 RMK A01 T00101043  RH  068%=      5-min Rain = 0
KVP1 191614Z 34017KT 01/M04 A303 RMK A01 T00121043  RH  067%=      5-min Rain = 0
KVP1 191615Z 34015KT 01/M04 A303 RMK A01 T00121043  RH  067%=      5-min Rain = 0
KVP1 191616Z 35016KT 01/M04 A303 RMK A01 T00131043  RH  066%=      5-min Rain = 0
KVP1 191617Z 35016KT 01/M05 A303 RMK A01 T00121045  RH  066%=      5-min Rain = 0
KVP1 191618Z 35016KT 01/M05 A303 RMK A01 T00101046  RH  066%=      5-min Rain = 0
KVP1 191619Z 36015KT 01/M05 A303 RMK A01 T00091046  RH  067%=      5-min Rain = 0
KVP1 191620Z 35018KT 01/M04 A3029 RMK A01 T00101044  RH  067%=      5-min Rain = 0
KVP1 191621Z 35017KT 01/M04 A303 RMK A01 T00111044  RH  067%=      5-min Rain = 0
KVP1 191622Z 35017KT 01/M05 A303 RMK A01 T00111045  RH  067%=      5-min Rain = 0
KVP1 191623Z 34018KT 01/M05 A303 RMK A01 T00101045  RH  067%=      5-min Rain = 0
KVP1 191624Z 35019KT 01/M05 A303 RMK A01 T00111045  RH  067%=      5-min Rain = 0
KVP1 191625Z 35019KT 01/M05 A303 RMK A01 T00101046  RH  066%=      5-min Rain = 0
KVP1 191626Z 34018KT 01/M05 A303 RMK A01 T00091046  RH  067%=      5-min Rain = 0
KVP1 191627Z 34017KT 01/M04 A303 RMK A01 T00111043  RH  067%=      5-min Rain = 0
KVP1 191628Z 34017KT 01/M04 A303 RMK A01 T00141042  RH  066%=      5-min Rain = 0
KVP1 191629Z 35017KT 02/M04 A303 RMK A01 T00151042  RH  066%=      5-min Rain = 0
KVP1 191630Z 35016G21KT 02/M04 A303 RMK A01 T00151044  RH  065%=      5-min Rain = 0
KVP1 191631Z 35018KT 02/M04 A303 RMK A01 T00161043  RH  065%=      5-min Rain = 0
KVP1 191632Z 35018KT 02/M05 A303 RMK A01 T00151045  RH  064%=      5-min Rain = 0
KVP1 191633Z 35017KT 01/M05 A303 RMK A01 T00111047  RH  065%=      5-min Rain = 0
KVP1 191634Z 35018KT 01/M05 A3031 RMK A01 T00111045  RH  066%=      5-min Rain = 0
KVP1 191635Z 35017KT 01/M04 A3031 RMK A01 T00141043  RH  066%=      5-min Rain = 0
KVP1 191636Z 34018G23KT 02/M04 A3031 RMK A01 T00161042  RH  065%=      5-min Rain = 0
KVP1 191637Z 34021KT 02/M04 A3031 RMK A01 T00181042  RH  064%=      5-min Rain = 0
KVP1 191638Z 34021KT 02/M04 A3031 RMK A01 T00181044  RH  064%=      5-min Rain = 0
KVP1 191639Z 34022KT 02/M04 A3031 RMK A01 T00171044  RH  064%=      5-min Rain = 0
KVP1 191640Z 34020KT 02/M05 A3031 RMK A01 T00151046  RH  064%=      5-min Rain = 0
KVP1 191641Z 34021KT 02/M04 A3031 RMK A01 T00161043  RH  065%=      5-min Rain = 0
KVP1 191642Z 34020G25KT 02/M04 A3031 RMK A01 T00171043  RH  064%=      5-min Rain = 0
KVP1 191643Z 34021KT 02/M04 A3031 RMK A01 T00181043  RH  064%=      5-min Rain = 0
KVP1 191644Z 34017G23KT 02/M05 A3031 RMK A01 T00171045  RH  063%=      5-min Rain = 0
KVP1 191645Z 34020KT 02/M04 A3031 RMK A01 T00171044  RH  064%=      5-min Rain = 0
KVP1 191646Z 34020KT 02/M04 A3031 RMK A01 T00171043  RH  064%=      5-min Rain = 0
KVP1 191647Z 34016KT 02/M04 A3031 RMK A01 T00191042  RH  064%=      5-min Rain = 0
KVP1 191648Z 33019G24KT 02/M04 A3031 RMK A01 T00201041  RH  064%=      5-min Rain = 0
KVP1 191649Z 33021KT 02/M04 A3031 RMK A01 T00211042  RH  063%=      5-min Rain = 0
KVP1 191650Z 33019G25KT 02/M04 A3031 RMK A01 T00221041  RH  063%=      5-min Rain = 0
KVP1 191651Z 33022KT 02/M04 A3031 RMK A01 T00231042  RH  062%=      5-min Rain = 0
KVP1 191652Z 33022KT 02/M04 A3031 RMK A01 T00221043  RH  062%=      5-min Rain = 0
KVP1 191653Z 33023KT 02/M04 A3031 RMK A01 T00211043  RH  062%=      5-min Rain = 0
KVP1 191654Z 34022KT 02/M04 A3031 RMK A01 T00201044  RH  062%=      5-min Rain = 0
KVP1 191655Z 34022KT 02/M04 A3031 RMK A01 T00181044  RH  063%=      5-min Rain = 0
KVP1 191656Z 35020G25KT 02/M04 A3031 RMK A01 T00191043  RH  064%=      5-min Rain = 0
KVP1 191657Z 34022KT 02/M04 A3031 RMK A01 T00181044  RH  063%=      5-min Rain = 0
KVP1 191658Z 34021KT 02/M04 A3031 RMK A01 T00181043  RH  064%=      5-min Rain = 0
KVP1 191659Z 35019KT 02/M04 A3031 RMK A01 T00191042  RH  064%=      5-min Rain = 0
KVP1 191700Z 34021KT 02/M04 A3031 RMK A01 T00191042  RH  064%=      5-min Rain = 0
KVP1 191701Z 34019KT 02/M04 A3031 RMK A01 T00201042  RH  064%=      5-min Rain = 0
KVP1 191702Z 34017G22KT 02/M04 A3031 RMK A01 T00191043  RH  063%=      5-min Rain = 0
KVP1 191703Z 34021KT 02/M04 A3031 RMK A01 T00201042  RH  063%=      5-min Rain = 0
KVP1 191704Z 35022KT 02/M04 A3032 RMK A01 T00201043  RH  063%=      5-min Rain = 0
KVP1 191705Z 34022KT 02/M05 A3032 RMK A01 T00191045  RH  063%=      5-min Rain = 0
KVP1 191706Z 34021G27KT 02/M04 A3032 RMK A01 T00181044  RH  063%=      5-min Rain = 0
KVP1 191707Z 34019KT 02/M04 A3031 RMK A01 T00201042  RH  064%=      5-min Rain = 0
KVP1 191708Z 34016KT 02/M04 A3031 RMK A01 T00221041  RH  063%=      5-min Rain = 0
KVP1 191709Z 34018G23KT 03/M04 A3031 RMK A01 T00251039  RH  063%=      5-min Rain = 0
KVP1 191710Z 34018G23KT 03/M04 A3031 RMK A01 T00251041  RH  062%=      5-min Rain = 0
KVP1 191711Z 34021KT 02/M04 A3031 RMK A01 T00241042  RH  062%=      5-min Rain = 0
KVP1 191712Z 35016G22KT 02/M04 A3031 RMK A01 T00231043  RH  062%=      5-min Rain = 0
KVP1 191713Z 34018G24KT 02/M04 A3031 RMK A01 T00211043  RH  062%=      5-min Rain = 0
KVP1 191714Z 34022KT 02/M04 A3031 RMK A01 T00241041  RH  062%=      5-min Rain = 0
KVP1 191715Z 34022KT 02/M04 A3031 RMK A01 T00241043  RH  061%=      5-min Rain = 0
KVP1 191716Z 34019KT 02/M04 A3031 RMK A01 T00241043  RH  061%=      5-min Rain = 0
KVP1 191717Z 34017KT 03/M04 A3031 RMK A01 T00251042  RH  061%=      5-min Rain = 0
KVP1 191718Z 34021KT 03/M04 A3031 RMK A01 T00261041  RH  061%=      5-min Rain = 0
KVP1 191719Z 34021KT 03/M04 A3031 RMK A01 T00281040  RH  061%=      5-min Rain = 0
KVP1 191720Z 34018KT 03/M04 A3031 RMK A01 T00291041  RH  060%=      5-min Rain = 0
KVP1 191721Z 34019G24KT 03/M04 A3031 RMK A01 T00271041  RH  061%=      5-min Rain = 0
KVP1 191722Z 34019KT 03/M04 A3031 RMK A01 T00281041  RH  061%=      5-min Rain = 0
KVP1 191723Z 34022KT 03/M04 A3031 RMK A01 T00271042  RH  061%=      5-min Rain = 0
KVP1 191724Z 34020KT 03/M04 A3031 RMK A01 T00271041  RH  061%=      5-min Rain = 0
KVP1 191725Z 34017KT 03/M04 A3031 RMK A01 T00291040  RH  061%=      5-min Rain = 0
KVP1 191726Z 34019KT 03/M04 A3031 RMK A01 T00301039  RH  060%=      5-min Rain = 0
KVP1 191727Z 34016KT 03/M04 A3031 RMK A01 T00311040  RH  060%=      5-min Rain = 0
KVP1 191728Z 35016KT 03/M04 A3031 RMK A01 T00311040  RH  060%=      5-min Rain = 0
KVP1 191729Z 34017KT 03/M04 A3031 RMK A01 T00301040  RH  060%=      5-min Rain = 0
KVP1 191730Z 34019G25KT 03/M04 A3031 RMK A01 T00341037  RH  060%=      5-min Rain = 0
KVP1 191731Z 34022KT 03/M04 A3031 RMK A01 T00341040  RH  058%=      5-min Rain = 0
KVP1 191732Z 34022KT 03/M04 A3031 RMK A01 T00331041  RH  058%=      5-min Rain = 0
KVP1 191733Z 34023KT 03/M04 A3031 RMK A01 T00311042  RH  059%=      5-min Rain = 0
KVP1 191734Z 34022KT 03/M04 A3031 RMK A01 T00301042  RH  059%=      5-min Rain = 0
KVP1 191735Z 34018G23KT 03/M04 A3031 RMK A01 T00301041  RH  060%=      5-min Rain = 0
KVP1 191736Z 34022KT 03/M04 A3031 RMK A01 T00311040  RH  060%=      5-min Rain = 0
KVP1 191737Z 34021KT 03/M04 A3031 RMK A01 T00321040  RH  059%=      5-min Rain = 0
KVP1 191738Z 34023KT 03/M04 A3031 RMK A01 T00321040  RH  059%=      5-min Rain = 0
KVP1 191739Z 33020KT 03/M04 A3031 RMK A01 T00321040  RH  059%=      5-min Rain = 0
KVP1 191740Z 34018G23KT 03/M04 A3031 RMK A01 T00341039  RH  059%=      5-min Rain = 0
KVP1 191741Z 35019KT 03/M04 A3031 RMK A01 T00341039  RH  059%=      5-min Rain = 0
KVP1 191742Z 35020KT 03/M04 A3031 RMK A01 T00341040  RH  059%=      5-min Rain = 0
KVP1 191743Z 34018KT 03/M04 A3031 RMK A01 T00311042  RH  059%=      5-min Rain = 0
KVP1 191744Z 34017KT 03/M04 A3031 RMK A01 T00301041  RH  060%=      5-min Rain = 0
KVP1 191745Z 33017KT 03/M04 A3031 RMK A01 T00331038  RH  060%=      5-min Rain = 0
KVP1 191746Z 34019KT 04/M04 A3031 RMK A01 T00361037  RH  059%=      5-min Rain = 0
KVP1 191747Z 34019KT 04/M04 A3031 RMK A01 T00351040  RH  058%=      5-min Rain = 0
KVP1 191748Z 34018KT 03/M04 A3031 RMK A01 T00331040  RH  059%=      5-min Rain = 0
KVP1 191749Z 34022KT 03/M04 A3031 RMK A01 T00331040  RH  059%=      5-min Rain = 0
KVP1 191750Z 34019KT 03/M04 A3031 RMK A01 T00331040  RH  059%=      5-min Rain = 0
KVP1 191751Z 34024KT 04/M04 A3031 RMK A01 T00361037  RH  059%=      5-min Rain = 0
KVP1 191752Z 34022KT 04/M04 A3031 RMK A01 T00361039  RH  058%=      5-min Rain = 0
KVP1 191753Z 34021KT 04/M04 A3031 RMK A01 T00361039  RH  058%=      5-min Rain = 0
KVP1 191754Z 34024KT 04/M04 A3031 RMK A01 T00361040  RH  058%=      5-min Rain = 0
KVP1 191755Z 34024KT 04/M04 A3031 RMK A01 T00351040  RH  058%=      5-min Rain = 0
KVP1 191756Z 34020KT 04/M04 A3031 RMK A01 T00351039  RH  058%=      5-min Rain = 0
KVP1 191757Z 34019KT 04/M04 A3031 RMK A01 T00361039  RH  058%=      5-min Rain = 0
KVP1 191758Z 34017KT 03/M04 A3031 RMK A01 T00341040  RH  058%=      5-min Rain = 0
KVP1 191759Z 34019KT 03/M04 A3031 RMK A01 T00341039  RH  059%=      5-min Rain = 0
KVP1 191800Z 34021KT 04/M04 A3031 RMK A01 T00361037  RH  059%=      5-min Rain = 0
KVP1 191801Z 34018KT 04/M04 A3031 RMK A01 T00371037  RH  058%=      5-min Rain = 0
KVP1 191802Z 34020KT 04/M04 A3031 RMK A01 T00401035  RH  058%=      5-min Rain = 0
KVP1 191803Z 35018KT 04/M04 A3031 RMK A01 T00411035  RH  057%=      5-min Rain = 0
KVP1 191804Z 35019G24KT 04/M04 A3031 RMK A01 T00401038  RH  057%=      5-min Rain = 0
KVP1 191805Z 34019KT 04/M04 A3031 RMK A01 T00371039  RH  057%=      5-min Rain = 0
KVP1 191806Z 34021KT 04/M04 A3031 RMK A01 T00361038  RH  058%=      5-min Rain = 0
KVP1 191807Z 36019G25KT 04/M04 A303 RMK A01 T00371038  RH  058%=      5-min Rain = 0
KVP1 191808Z 34022KT 04/M04 A3031 RMK A01 T00361039  RH  058%=      5-min Rain = 0
KVP1 191809Z 35021KT 03/M04 A3031 RMK A01 T00341040  RH  058%=      5-min Rain = 0
KVP1 191810Z 34024KT 03/M04 A303 RMK A01 T00341040  RH  059%=      5-min Rain = 0
KVP1 191811Z 34026KT 03/M04 A3031 RMK A01 T00321041  RH  059%=      5-min Rain = 0
KVP1 191812Z 34025KT 03/M04 A3031 RMK A01 T00321040  RH  059%=      5-min Rain = 0
KVP1 191813Z 34022KT 03/M04 A3031 RMK A01 T00321040  RH  059%=      5-min Rain = 0
KVP1 191814Z 34020KT 03/M04 A3031 RMK A01 T00341038  RH  059%=      5-min Rain = 0
KVP1 191815Z 34023KT 04/M04 A303 RMK A01 T00351038  RH  059%=      5-min Rain = 0
KVP1 191816Z 34023G29KT 04/M04 A303 RMK A01 T00361038  RH  059%=      5-min Rain = 0
KVP1 191817Z 34025KT 04/M04 A303 RMK A01 T00371038  RH  058%=      5-min Rain = 0
KVP1 191818Z 34025KT 04/M04 A303 RMK A01 T00361039  RH  058%=      5-min Rain = 0
KVP1 191819Z 33024KT 04/M04 A3031 RMK A01 T00361039  RH  058%=      5-min Rain = 0
KVP1 191820Z 33023KT 04/M04 A3031 RMK A01 T00361038  RH  058%=      5-min Rain = 0
KVP1 191821Z 33021G26KT 04/M04 A3031 RMK A01 T00371038  RH  058%=      5-min Rain = 0
KVP1 191822Z 34021KT 04/M04 A3031 RMK A01 T00371038  RH  058%=      5-min Rain = 0
KVP1 191823Z 33023KT 04/M04 A3031 RMK A01 T00371037  RH  058%=      5-min Rain = 0
KVP1 191824Z 33022G28KT 04/M04 A3031 RMK A01 T00381038  RH  058%=      5-min Rain = 0
KVP1 191825Z 33024KT 04/M04 A3031 RMK A01 T00381038  RH  058%=      5-min Rain = 0
KVP1 191826Z 34023KT 04/M04 A3031 RMK A01 T00371039  RH  057%=      5-min Rain = 0
KVP1 191827Z 34020G27KT 04/M04 A3031 RMK A01 T00371038  RH  058%=      5-min Rain = 0
KVP1 191828Z 34024KT 04/M04 A3031 RMK A01 T00381037  RH  058%=      5-min Rain = 0
KVP1 191829Z 33022KT 04/M04 A3031 RMK A01 T00371039  RH  057%=      5-min Rain = 0
KVP1 191830Z 34020KT 04/M04 A3031 RMK A01 T00361039  RH  058%=      5-min Rain = 0
KVP1 191831Z 33020KT 04/M04 A303 RMK A01 T00371036  RH  059%=      5-min Rain = 0
KVP1 191832Z 33018KT 04/M04 A303 RMK A01 T00371038  RH  058%=      5-min Rain = 0
KVP1 191833Z 34016KT 04/M04 A303 RMK A01 T00361037  RH  059%=      5-min Rain = 0
KVP1 191834Z 34018KT 04/M04 A303 RMK A01 T00381036  RH  059%=      5-min Rain = 0
KVP1 191835Z 34021KT 04/M04 A303 RMK A01 T00401035  RH  058%=      5-min Rain = 0
KVP1 191836Z 33021KT 04/M04 A303 RMK A01 T00411036  RH  057%=      5-min Rain = 0
KVP1 191837Z 34018KT 04/M04 A303 RMK A01 T00401037  RH  057%=      5-min Rain = 0
KVP1 191838Z 33022KT 04/M04 A303 RMK A01 T00421035  RH  057%=      5-min Rain = 0
KVP1 191839Z 33021KT 04/M04 A303 RMK A01 T00421037  RH  057%=      5-min Rain = 0
KVP1 191840Z 34018G23KT 04/M04 A303 RMK A01 T00421036  RH  057%=      5-min Rain = 0
KVP1 191841Z 34017KT 04/M04 A303 RMK A01 T00431035  RH  057%=      5-min Rain = 0
KVP1 191842Z 34020G25KT 04/M04 A303 RMK A01 T00421036  RH  057%=      5-min Rain = 0
KVP1 191843Z 34017KT 04/M04 A3029 RMK A01 T00401037  RH  057%=      5-min Rain = 0
KVP1 191844Z 33019KT 04/M04 A3029 RMK A01 T00401036  RH  058%=      5-min Rain = 0
KVP1 191845Z 33019KT 04/M04 A3029 RMK A01 T00401037  RH  057%=      5-min Rain = 0
KVP1 191846Z 34016KT 04/M03 A303 RMK A01 T00421034  RH  058%=      5-min Rain = 0
KVP1 191847Z 33017KT 05/M03 A303 RMK A01 T00451034  RH  057%=      5-min Rain = 0
KVP1 191848Z 34021KT 05/M03 A303 RMK A01 T00451034  RH  056%=      5-min Rain = 0
KVP1 191849Z 33018KT 04/M04 A3029 RMK A01 T00441036  RH  056%=      5-min Rain = 0
KVP1 191850Z 33017G22KT 04/M03 A3029 RMK A01 T00441034  RH  057%=      5-min Rain = 0
KVP1 191851Z 33018KT 05/M03 A3029 RMK A01 T00471033  RH  056%=      5-min Rain = 0
KVP1 191852Z 33019KT 05/M04 A3029 RMK A01 T00461035  RH  055%=      5-min Rain = 0
KVP1 191853Z 33017KT 04/M04 A3029 RMK A01 T00441036  RH  056%=      5-min Rain = 0
KVP1 191854Z 33018KT 04/M04 A3029 RMK A01 T00421036  RH  057%=      5-min Rain = 0
KVP1 191855Z 34015KT 04/M04 A3029 RMK A01 T00431035  RH  057%=      5-min Rain = 0
KVP1 191856Z 33016KT 04/M03 A3029 RMK A01 T00441032  RH  058%=      5-min Rain = 0
KVP1 191857Z 33018KT 05/M03 A3029 RMK A01 T00501030  RH  056%=      5-min Rain = 0
KVP1 191858Z 34019KT 05/M03 A3029 RMK A01 T00511033  RH  055%=      5-min Rain = 0
KVP1 191859Z 34017KT 05/M03 A3029 RMK A01 T00491034  RH  055%=      5-min Rain = 0
KVP1 191900Z 33017KT 05/M04 A3029 RMK A01 T00481035  RH  055%=      5-min Rain = 0
KVP1 191901Z 33015G20KT 05/M03 A3029 RMK A01 T00491032  RH  056%=      5-min Rain = 0
KVP1 191902Z 34016G21KT 05/M03 A3029 RMK A01 T00541030  RH  055%=      5-min Rain = 0
KVP1 191903Z 33019KT 05/M03 A3029 RMK A01 T00531034  RH  054%=      5-min Rain = 0
KVP1 191904Z 33016KT 05/M03 A3029 RMK A01 T00521034  RH  054%=      5-min Rain = 0
KVP1 191905Z 33014KT 05/M03 A3029 RMK A01 T00531032  RH  054%=      5-min Rain = 0
KVP1 191906Z 33016KT 05/M03 A3029 RMK A01 T00541032  RH  054%=      5-min Rain = 0
KVP1 191907Z 34015KT 05/M03 A3029 RMK A01 T00541032  RH  054%=      5-min Rain = 0
KVP1 191908Z 34016KT 05/M03 A3029 RMK A01 T00531032  RH  054%=      5-min Rain = 0
KVP1 191909Z 34014G19KT 05/M03 A3029 RMK A01 T00531033  RH  054%=      5-min Rain = 0
KVP1 191910Z 33017KT 05/M03 A3028 RMK A01 T00531033  RH  054%=      5-min Rain = 0
KVP1 191911Z 33018KT 05/M03 A3028 RMK A01 T00531033  RH  054%=      5-min Rain = 0
KVP1 191912Z 33017KT 05/M04 A3028 RMK A01 T00511035  RH  054%=      5-min Rain = 0
KVP1 191913Z 33017KT 05/M03 A3028 RMK A01 T00501033  RH  055%=      5-min Rain = 0
KVP1 191914Z 34014G19KT 05/M03 A3028 RMK A01 T00521032  RH  055%=      5-min Rain = 0
KVP1 191915Z 34017KT 05/M03 A3028 RMK A01 T00541032  RH  054%=      5-min Rain = 0
KVP1 191916Z 34013KT 05/M03 A3028 RMK A01 T00521033  RH  054%=      5-min Rain = 0
KVP1 191917Z 33015G20KT 06/M03 A3028 RMK A01 T00551029  RH  055%=      5-min Rain = 0
KVP1 191918Z 34018KT 06/M03 A3028 RMK A01 T00561031  RH  053%=      5-min Rain = 0
KVP1 191919Z 34016KT 06/M03 A3028 RMK A01 T00551032  RH  053%=      5-min Rain = 0
KVP1 191920Z 34018KT 05/M03 A3028 RMK A01 T00541032  RH  054%=      5-min Rain = 0
KVP1 191921Z 33019KT 05/M03 A3028 RMK A01 T00541033  RH  053%=      5-min Rain = 0
KVP1 191922Z 33021KT 05/M04 A3028 RMK A01 T00531035  RH  053%=      5-min Rain = 0
KVP1 191923Z 35015G20KT 05/M03 A3028 RMK A01 T00531034  RH  053%=      5-min Rain = 0
KVP1 191924Z 35015KT 05/M03 A3028 RMK A01 T00531033  RH  054%=      5-min Rain = 0
KVP1 191925Z 34018KT 05/M03 A3028 RMK A01 T00541034  RH  053%=      5-min Rain = 0
KVP1 191926Z 34021KT 06/M03 A3028 RMK A01 T00551034  RH  053%=      5-min Rain = 0
KVP1 191927Z 33017KT 06/M03 A3028 RMK A01 T00561033  RH  053%=      5-min Rain = 0
KVP1 191928Z 34020KT 06/M03 A3028 RMK A01 T00581033  RH  052%=      5-min Rain = 0
KVP1 191929Z 34020KT 06/M04 A3028 RMK A01 T00581035  RH  051%=      5-min Rain = 0
KVP1 191930Z 34019KT 06/M03 A3028 RMK A01 T00581034  RH  052%=      5-min Rain = 0
KVP1 191931Z 35017KT 06/M03 A3028 RMK A01 T00591033  RH  052%=      5-min Rain = 0
KVP1 191932Z 34017KT 06/M03 A3027 RMK A01 T00571034  RH  052%=      5-min Rain = 0
KVP1 191933Z 34017KT 06/M04 A3028 RMK A01 T00561035  RH  052%=      5-min Rain = 0
KVP1 191934Z 33019KT 06/M03 A3028 RMK A01 T00561034  RH  052%=      5-min Rain = 0
KVP1 191935Z 33018KT 06/M04 A3027 RMK A01 T00561035  RH  052%=      5-min Rain = 0
KVP1 191936Z 33020KT 06/M04 A3027 RMK A01 T00571035  RH  052%=      5-min Rain = 0
KVP1 191937Z 33019KT 06/M04 A3027 RMK A01 T00571036  RH  051%=      5-min Rain = 0
KVP1 191938Z 34019G24KT 06/M04 A3027 RMK A01 T00571036  RH  051%=      5-min Rain = 0
KVP1 191939Z 34018KT 06/M04 A3027 RMK A01 T00581035  RH  051%=      5-min Rain = 0
KVP1 191940Z 35015KT 06/M03 A3027 RMK A01 T00581034  RH  051%=      5-min Rain = 0
KVP1 191941Z 35015KT 06/M04 A3027 RMK A01 T00561036  RH  051%=      5-min Rain = 0
KVP1 191942Z 35014KT 05/M04 A3027 RMK A01 T00541035  RH  053%=      5-min Rain = 0
KVP1 191943Z 34012KT 06/M03 A3027 RMK A01 T00551032  RH  054%=      5-min Rain = 0
KVP1 191944Z 34015KT 06/M03 A3027 RMK A01 T00601028  RH  053%=      5-min Rain = 0
KVP1 191945Z 33016KT 06/M03 A3027 RMK A01 T00621031  RH  052%=      5-min Rain = 0
KVP1 191946Z 33017KT 06/M03 A3027 RMK A01 T00601032  RH  051%=      5-min Rain = 0
KVP1 191947Z 33017G22KT 06/M03 A3027 RMK A01 T00621032  RH  051%=      5-min Rain = 0
KVP1 191948Z 33015KT 06/M03 A3027 RMK A01 T00621032  RH  051%=      5-min Rain = 0
KVP1 191949Z 32017KT 06/M03 A3027 RMK A01 T00621032  RH  051%=      5-min Rain = 0
KVP1 191950Z 33017KT 06/M03 A3027 RMK A01 T00621033  RH  051%=      5-min Rain = 0
KVP1 191951Z 33015KT 06/M03 A3027 RMK A01 T00631033  RH  050%=      5-min Rain = 0
KVP1 191952Z 33016KT 07/M03 A3027 RMK A01 T00661032  RH  050%=      5-min Rain = 0
KVP1 191953Z 33014KT 07/M03 A3027 RMK A01 T00661031  RH  050%=      5-min Rain = 0
KVP1 191954Z 32016KT 07/M03 A3027 RMK A01 T00651032  RH  050%=      5-min Rain = 0
KVP1 191955Z 33020KT 06/M03 A3027 RMK A01 T00641034  RH  049%=      5-min Rain = 0
KVP1 191956Z 33018KT 06/M04 A3027 RMK A01 T00641037  RH  049%=      5-min Rain = 0
KVP1 191957Z 33017KT 06/M04 A3027 RMK A01 T00641036  RH  049%=      5-min Rain = 0
KVP1 191958Z 33017KT 07/M03 A3027 RMK A01 T00651034  RH  049%=      5-min Rain = 0
KVP1 191959Z 34017G22KT 07/M04 A3027 RMK A01 T00661035  RH  048%=      5-min Rain = 0
KVP1 192000Z 34017KT 07/M04 A3027 RMK A01 T00651035  RH  049%=      5-min Rain = 0
KVP1 192001Z 34013KT 07/M03 A3027 RMK A01 T00651034  RH  049%=      5-min Rain = 0
KVP1 192002Z 33017KT 07/M03 A3027 RMK A01 T00671032  RH  049%=      5-min Rain = 0
KVP1 192003Z 32015KT 07/M03 A3027 RMK A01 T00681033  RH  049%=      5-min Rain = 0
KVP1 192004Z 33015KT 07/M03 A3027 RMK A01 T00671033  RH  049%=      5-min Rain = 0
KVP1 192005Z 33014G21KT 07/M03 A3027 RMK A01 T00681031  RH  049%=      5-min Rain = 0
KVP1 192006Z 33020KT 07/M03 A3027 RMK A01 T00701033  RH  048%=      5-min Rain = 0
KVP1 192007Z 34018KT 07/M04 A3027 RMK A01 T00691035  RH  048%=      5-min Rain = 0
KVP1 192008Z 34018KT 07/M03 A3026 RMK A01 T00671034  RH  048%=      5-min Rain = 0
KVP1 192009Z 33017KT 07/M03 A3027 RMK A01 T00671034  RH  048%=      5-min Rain = 0
KVP1 192010Z 33014KT 07/M03 A3026 RMK A01 T00661034  RH  049%=      5-min Rain = 0
KVP1 192011Z 33013KT 07/M03 A3026 RMK A01 T00651033  RH  049%=      5-min Rain = 0
KVP1 192012Z 32018KT 07/M04 A3026 RMK A01 T00661036  RH  048%=      5-min Rain = 0
KVP1 192013Z 32018KT 07/M04 A3026 RMK A01 T00661036  RH  048%=      5-min Rain = 0
KVP1 192014Z 32016KT 07/M04 A3026 RMK A01 T00661035  RH  048%=      5-min Rain = 0
KVP1 192015Z 33019KT 07/M03 A3026 RMK A01 T00681034  RH  048%=      5-min Rain = 0
KVP1 192016Z 33015KT 07/M04 A3026 RMK A01 T00691035  RH  048%=      5-min Rain = 0
KVP1 192017Z 33017G22KT 07/M04 A3026 RMK A01 T00671036  RH  048%=      5-min Rain = 0
KVP1 192018Z 33018KT 07/M04 A3026 RMK A01 T00681036  RH  047%=      5-min Rain = 0
KVP1 192019Z 33016KT 07/M04 A3026 RMK A01 T00681037  RH  047%=      5-min Rain = 0
KVP1 192020Z 33015KT 07/M04 A3026 RMK A01 T00671038  RH  047%=      5-min Rain = 0
KVP1 192021Z 33017KT 07/M04 A3026 RMK A01 T00681035  RH  048%=      5-min Rain = 0
KVP1 192022Z 35017KT 07/M04 A3026 RMK A01 T00701037  RH  046%=      5-min Rain = 0
KVP1 192023Z 34016KT 07/M04 A3026 RMK A01 T00691037  RH  047%=      5-min Rain = 0
KVP1 192024Z 33016KT 07/M04 A3026 RMK A01 T00701035  RH  047%=      5-min Rain = 0
KVP1 192025Z 33018KT 07/M04 A3025 RMK A01 T00701036  RH  047%=      5-min Rain = 0
KVP1 192026Z 33017KT 07/M04 A3026 RMK A01 T00701038  RH  046%=      5-min Rain = 0
KVP1 192027Z 34014KT 07/M04 A3026 RMK A01 T00711037  RH  046%=      5-min Rain = 0
KVP1 192028Z 34014KT 07/M04 A3026 RMK A01 T00711037  RH  046%=      5-min Rain = 0
KVP1 192029Z 35017KT 07/M04 A3026 RMK A01 T00741035  RH  046%=      5-min Rain = 0
KVP1 192030Z 35016KT 07/M04 A3026 RMK A01 T00701038  RH  046%=      5-min Rain = 0
KVP1 192031Z 34013KT 07/M04 A3026 RMK A01 T00661038  RH  047%=      5-min Rain = 0
KVP1 192032Z 33014KT 07/M03 A3026 RMK A01 T00691034  RH  048%=      5-min Rain = 0
KVP1 192033Z 32014KT 07/M03 A3026 RMK A01 T00721034  RH  047%=      5-min Rain = 0
KVP1 192034Z 32012KT 07/M03 A3026 RMK A01 T00721034  RH  047%=      5-min Rain = 0
KVP1 192035Z 32014G19KT 07/M03 A3026 RMK A01 T00731033  RH  047%=      5-min Rain = 0
KVP1 192036Z 32017KT 07/M03 A3025 RMK A01 T00741034  RH  046%=      5-min Rain = 0
KVP1 192037Z 32014KT 07/M04 A3026 RMK A01 T00741036  RH  046%=      5-min Rain = 0
KVP1 192038Z 32018KT 07/M04 A3026 RMK A01 T00721036  RH  046%=      5-min Rain = 0
KVP1 192039Z 32013KT 07/M04 A3026 RMK A01 T00731036  RH  046%=      5-min Rain = 0
KVP1 192040Z 32015KT 07/M04 A3026 RMK A01 T00731035  RH  046%=      5-min Rain = 0
KVP1 192041Z 34015KT 08/M04 A3026 RMK A01 T00751035  RH  046%=      5-min Rain = 0
KVP1 192042Z 34013KT 07/M04 A3026 RMK A01 T00741036  RH  046%=      5-min Rain = 0
KVP1 192043Z 33012KT 07/M04 A3026 RMK A01 T00711036  RH  046%=      5-min Rain = 0
KVP1 192044Z 31015KT 07/M03 A3026 RMK A01 T00721033  RH  047%=      5-min Rain = 0
KVP1 192045Z 32015KT 08/M03 A3026 RMK A01 T00751034  RH  046%=      5-min Rain = 0
KVP1 192046Z 33017KT 08/M04 A3026 RMK A01 T00751036  RH  045%=      5-min Rain = 0
KVP1 192047Z 32015G20KT 07/M04 A3026 RMK A01 T00741036  RH  046%=      5-min Rain = 0
KVP1 192048Z 32015KT 07/M04 A3026 RMK A01 T00741036  RH  046%=      5-min Rain = 0
KVP1 192049Z 33015KT 07/M04 A3026 RMK A01 T00731036  RH  046%=      5-min Rain = 0
KVP1 192050Z 33016KT 07/M04 A3026 RMK A01 T00731035  RH  046%=      5-min Rain = 0
KVP1 192051Z 33015KT 07/M04 A3026 RMK A01 T00721036  RH  046%=      5-min Rain = 0
KVP1 192052Z 33012KT 07/M04 A3026 RMK A01 T00721035  RH  046%=      5-min Rain = 0
KVP1 192053Z 32017KT 07/M04 A3026 RMK A01 T00741035  RH  046%=      5-min Rain = 0
KVP1 192054Z 32017KT 08/M04 A3026 RMK A01 T00751037  RH  045%=      5-min Rain = 0
KVP1 192055Z 33014KT 08/M04 A3026 RMK A01 T00761036  RH  045%=      5-min Rain = 0
KVP1 192056Z 34018KT 08/M04 A3026 RMK A01 T00781036  RH  044%=      5-min Rain = 0
KVP1 192057Z 33017KT 08/M04 A3026 RMK A01 T00781038  RH  044%=      5-min Rain = 0
KVP1 192058Z 33015KT 08/M04 A3026 RMK A01 T00781037  RH  044%=      5-min Rain = 0
KVP1 192059Z 33015KT 08/M04 A3026 RMK A01 T00771036  RH  044%=      5-min Rain = 0
KVP1 192100Z 34014KT 08/M04 A3026 RMK A01 T00751036  RH  045%=      5-min Rain = 0
KVP1 192101Z 33014KT 08/M03 A3026 RMK A01 T00761034  RH  046%=      5-min Rain = 0
KVP1 192102Z 33016KT 08/M04 A3026 RMK A01 T00771036  RH  045%=      5-min Rain = 0
KVP1 192103Z 34014KT 08/M04 A3026 RMK A01 T00781036  RH  044%=      5-min Rain = 0
KVP1 192104Z 33012KT 08/M04 A3026 RMK A01 T00771036  RH  045%=      5-min Rain = 0
KVP1 192105Z 33017KT 08/M03 A3026 RMK A01 T00781034  RH  045%=      5-min Rain = 0
KVP1 192106Z 33014KT 08/M04 A3026 RMK A01 T00781037  RH  044%=      5-min Rain = 0
KVP1 192107Z 32014KT 08/M04 A3026 RMK A01 T00781036  RH  044%=      5-min Rain = 0
KVP1 192108Z 32016KT 08/M04 A3026 RMK A01 T00801037  RH  043%=      5-min Rain = 0
KVP1 192109Z 32016KT 08/M04 A3026 RMK A01 T00801040  RH  043%=      5-min Rain = 0
KVP1 192110Z 32014KT 08/M04 A3026 RMK A01 T00791040  RH  043%=      5-min Rain = 0
KVP1 192111Z 31016KT 08/M04 A3026 RMK A01 T00781040  RH  043%=      5-min Rain = 0
KVP1 192112Z 32014KT 08/M04 A3026 RMK A01 T00771040  RH  043%=      5-min Rain = 0
KVP1 192113Z 33015KT 08/M04 A3026 RMK A01 T00781037  RH  044%=      5-min Rain = 0
KVP1 192114Z 33016KT 08/M04 A3026 RMK A01 T00811036  RH  043%=      5-min Rain = 0
KVP1 192115Z 33017KT 08/M04 A3026 RMK A01 T00801040  RH  042%=      5-min Rain = 0
KVP1 192116Z 33016KT 08/M04 A3026 RMK A01 T00791041  RH  042%=      5-min Rain = 0
KVP1 192117Z 33019KT 08/M04 A3026 RMK A01 T00781042  RH  042%=      5-min Rain = 0
KVP1 192118Z 34015KT 08/M04 A3026 RMK A01 T00771043  RH  043%=      5-min Rain = 0
KVP1 192119Z 34014KT 08/M04 A3026 RMK A01 T00761042  RH  043%=      5-min Rain = 0
KVP1 192120Z 34016KT 08/M04 A3026 RMK A01 T00781040  RH  043%=      5-min Rain = 0
KVP1 192121Z 34014KT 08/M04 A3026 RMK A01 T00781041  RH  043%=      5-min Rain = 0
KVP1 192122Z 34014KT 08/M04 A3026 RMK A01 T00771042  RH  043%=      5-min Rain = 0
KVP1 192123Z 35012KT 08/M04 A3026 RMK A01 T00771040  RH  043%=      5-min Rain = 0
KVP1 192124Z 35010KT 08/M04 A3026 RMK A01 T00761039  RH  044%=      5-min Rain = 0
KVP1 192125Z 33012KT 08/M04 A3026 RMK A01 T00771038  RH  044%=      5-min Rain = 0
KVP1 192126Z 33015KT 08/M04 A3026 RMK A01 T00791039  RH  043%=      5-min Rain = 0
KVP1 192127Z 33013KT 08/M04 A3026 RMK A01 T00801038  RH  043%=      5-min Rain = 0
KVP1 192128Z 33014KT 08/M04 A3026 RMK A01 T00811038  RH  043%=      5-min Rain = 0
KVP1 192129Z 33014KT 08/M04 A3026 RMK A01 T00801041  RH  042%=      5-min Rain = 0
KVP1 192130Z 32015KT 08/M04 A3026 RMK A01 T00791042  RH  042%=      5-min Rain = 0
KVP1 192131Z 33017KT 08/M04 A3026 RMK A01 T00791042  RH  042%=      5-min Rain = 0
KVP1 192132Z 33013KT 08/M04 A3026 RMK A01 T00771042  RH  043%=      5-min Rain = 0
KVP1 192133Z 32012KT 08/M04 A3026 RMK A01 T00771041  RH  043%=      5-min Rain = 0
KVP1 192134Z 33012KT 08/M04 A3026 RMK A01 T00781040  RH  043%=      5-min Rain = 0
KVP1 192135Z 33014KT 08/M04 A3026 RMK A01 T00801039  RH  043%=      5-min Rain = 0
KVP1 192136Z 32013KT 08/M04 A3026 RMK A01 T00801041  RH  042%=      5-min Rain = 0
KVP1 192137Z 32011KT 08/M04 A3026 RMK A01 T00791041  RH  042%=      5-min Rain = 0
KVP1 192138Z 32014KT 08/M04 A3026 RMK A01 T00791041  RH  042%=      5-min Rain = 0
KVP1 192139Z 32015KT 08/M04 A3026 RMK A01 T00801041  RH  042%=      5-min Rain = 0
KVP1 192140Z 33012KT 08/M04 A3026 RMK A01 T00801040  RH  042%=      5-min Rain = 0
KVP1 192141Z 34015KT 08/M04 A3026 RMK A01 T00811039  RH  042%=      5-min Rain = 0
KVP1 192142Z 33014KT 08/M04 A3026 RMK A01 T00821043  RH  041%=      5-min Rain = 0
KVP1 192143Z 33015KT 08/M04 A3026 RMK A01 T00811043  RH  041%=      5-min Rain = 0
KVP1 192144Z 33015KT 08/M04 A3026 RMK A01 T00791043  RH  042%=      5-min Rain = 0
KVP1 192145Z 34014KT 08/M04 A3026 RMK A01 T00781042  RH  042%=      5-min Rain = 0
KVP1 192146Z 34014KT 08/M04 A3026 RMK A01 T00781041  RH  043%=      5-min Rain = 0
KVP1 192147Z 34011KT 08/M04 A3026 RMK A01 T00781039  RH  043%=      5-min Rain = 0
KVP1 192148Z 31013KT 08/M04 A3026 RMK A01 T00791038  RH  043%=      5-min Rain = 0
KVP1 192149Z 32014KT 08/M04 A3026 RMK A01 T00801040  RH  042%=      5-min Rain = 0
KVP1 192150Z 32012KT 08/M04 A3026 RMK A01 T00801040  RH  042%=      5-min Rain = 0
KVP1 192151Z 34011KT 08/M04 A3026 RMK A01 T00811039  RH  043%=      5-min Rain = 0
KVP1 192152Z 34012KT 08/M04 A3026 RMK A01 T00811039  RH  043%=      5-min Rain = 0
KVP1 192153Z 34014KT 08/M04 A3026 RMK A01 T00811039  RH  043%=      5-min Rain = 0
KVP1 192154Z 33015KT 08/M04 A3026 RMK A01 T00801042  RH  042%=      5-min Rain = 0
KVP1 192155Z 35014KT 08/M04 A3026 RMK A01 T00811043  RH  041%=      5-min Rain = 0
KVP1 192156Z 34014KT 08/M04 A3026 RMK A01 T00781044  RH  042%=      5-min Rain = 0
KVP1 192157Z 34015KT 08/M04 A3026 RMK A01 T00771043  RH  042%=      5-min Rain = 0
KVP1 192158Z 35011KT 08/M04 A3026 RMK A01 T00761043  RH  043%=      5-min Rain = 0
KVP1 192159Z 35011KT 08/M04 A3026 RMK A01 T00771041  RH  043%=      5-min Rain = 0
KVP1 192200Z 35012KT 08/M04 A3026 RMK A01 T00781042  RH  042%=      5-min Rain = 0
KVP1 192201Z 34012KT 08/M04 A3026 RMK A01 T00781042  RH  042%=      5-min Rain = 0
KVP1 192202Z 34013KT 08/M04 A3026 RMK A01 T00801040  RH  042%=      5-min Rain = 0
KVP1 192203Z 35011KT 08/M04 A3026 RMK A01 T00811042  RH  041%=      5-min Rain = 0
KVP1 192204Z 32013KT 08/M04 A3026 RMK A01 T00811043  RH  041%=      5-min Rain = 0
KVP1 192205Z 33013KT 08/M04 A3026 RMK A01 T00811043  RH  041%=      5-min Rain = 0
KVP1 192206Z 33013KT 08/M04 A3026 RMK A01 T00811042  RH  042%=      5-min Rain = 0
KVP1 192207Z 33014KT 08/M04 A3026 RMK A01 T00801042  RH  042%=      5-min Rain = 0
KVP1 192208Z 33013KT 08/M04 A3026 RMK A01 T00791043  RH  042%=      5-min Rain = 0
KVP1 192209Z 33011KT 08/M04 A3026 RMK A01 T00791043  RH  042%=      5-min Rain = 0
KVP1 192210Z 33010KT 08/M04 A3026 RMK A01 T00791043  RH  042%=      5-min Rain = 0
KVP1 192211Z 33011KT 08/M04 A3026 RMK A01 T00781043  RH  042%=      5-min Rain = 0
KVP1 192212Z 33011KT 08/M04 A3026 RMK A01 T00781042  RH  042%=      5-min Rain = 0
KVP1 192213Z 32014KT 08/M04 A3026 RMK A01 T00791042  RH  042%=      5-min Rain = 0
KVP1 192214Z 32014KT 08/M04 A3026 RMK A01 T00801044  RH  041%=      5-min Rain = 0
KVP1 192215Z 32013KT 08/M04 A3026 RMK A01 T00801044  RH  041%=      5-min Rain = 0
KVP1 192216Z 33014KT 08/M04 A3027 RMK A01 T00801044  RH  041%=      5-min Rain = 0
KVP1 192217Z 33012KT 08/M04 A3027 RMK A01 T00801043  RH  042%=      5-min Rain = 0
KVP1 192218Z 33011KT 08/M04 A3027 RMK A01 T00801042  RH  042%=      5-min Rain = 0
KVP1 192219Z 33014KT 08/M04 A3027 RMK A01 T00801043  RH  042%=      5-min Rain = 0
KVP1 192220Z 33013KT 08/M04 A3027 RMK A01 T00801043  RH  041%=      5-min Rain = 0
KVP1 192221Z 34013KT 08/M04 A3027 RMK A01 T00791043  RH  042%=      5-min Rain = 0
KVP1 192222Z 34010KT 08/M04 A3027 RMK A01 T00801042  RH  042%=      5-min Rain = 0
KVP1 192223Z 32011KT 08/M04 A3027 RMK A01 T00791042  RH  042%=      5-min Rain = 0
KVP1 192224Z 32011KT 08/M04 A3027 RMK A01 T00791042  RH  042%=      5-min Rain = 0
KVP1 192225Z 32014KT 08/M04 A3027 RMK A01 T00801042  RH  042%=      5-min Rain = 0
KVP1 192226Z 33013KT 08/M04 A3027 RMK A01 T00801044  RH  041%=      5-min Rain = 0
KVP1 192227Z 34013KT 08/M04 A3027 RMK A01 T00791044  RH  041%=      5-min Rain = 0
KVP1 192228Z 34010KT 08/M04 A3027 RMK A01 T00781044  RH  042%=      5-min Rain = 0
KVP1 192229Z 34010KT 08/M04 A3027 RMK A01 T00781043  RH  042%=      5-min Rain = 0
KVP1 192230Z 33011KT 08/M04 A3027 RMK A01 T00781044  RH  042%=      5-min Rain = 0
KVP1 192231Z 33012KT 08/M04 A3027 RMK A01 T00771044  RH  042%=      5-min Rain = 0
KVP1 192232Z 33012KT 08/M04 A3027 RMK A01 T00781042  RH  042%=      5-min Rain = 0
KVP1 192233Z 33013KT 08/M04 A3027 RMK A01 T00791043  RH  042%=      5-min Rain = 0
KVP1 192234Z 34012KT 08/M04 A3027 RMK A01 T00791044  RH  041%=      5-min Rain = 0
KVP1 192235Z 34008KT 08/M04 A3027 RMK A01 T00781044  RH  042%=      5-min Rain = 0
KVP1 192236Z 34008KT 08/M04 A3027 RMK A01 T00771044  RH  042%=      5-min Rain = 0
KVP1 192237Z 35009KT 08/M04 A3027 RMK A01 T00791041  RH  043%=      5-min Rain = 0
KVP1 192238Z 34007KT 08/M04 A3027 RMK A01 T00791042  RH  042%=      5-min Rain = 0
KVP1 192239Z 33008KT 08/M04 A3027 RMK A01 T00801041  RH  042%=      5-min Rain = 0
KVP1 192240Z 35009KT 08/M04 A3027 RMK A01 T00811041  RH  042%=      5-min Rain = 0
KVP1 192241Z 35007KT 08/M04 A3027 RMK A01 T00791042  RH  042%=      5-min Rain = 0
KVP1 192242Z 33009KT 08/M04 A3027 RMK A01 T00791041  RH  043%=      5-min Rain = 0
KVP1 192243Z 33009KT 08/M04 A3027 RMK A01 T00791041  RH  042%=      5-min Rain = 0
KVP1 192244Z 33010KT 08/M04 A3027 RMK A01 T00791043  RH  042%=      5-min Rain = 0
KVP1 192245Z 33010KT 08/M04 A3027 RMK A01 T00791044  RH  042%=      5-min Rain = 0
KVP1 192246Z 33010KT 08/M05 A3027 RMK A01 T00791045  RH  041%=      5-min Rain = 0
KVP1 192247Z 32010KT 08/M05 A3027 RMK A01 T00781045  RH  041%=      5-min Rain = 0
KVP1 192248Z 34010KT 08/M05 A3027 RMK A01 T00781045  RH  041%=      5-min Rain = 0
KVP1 192249Z 33010KT 08/M05 A3027 RMK A01 T00781045  RH  041%=      5-min Rain = 0
KVP1 192250Z 34009KT 08/M05 A3027 RMK A01 T00781045  RH  042%=      5-min Rain = 0
KVP1 192251Z 35008KT 08/M05 A3027 RMK A01 T00781045  RH  041%=      5-min Rain = 0
KVP1 192252Z 35008KT 08/M05 A3027 RMK A01 T00771045  RH  042%=      5-min Rain = 0
KVP1 192253Z 34012KT 08/M05 A3027 RMK A01 T00771045  RH  042%=      5-min Rain = 0
KVP1 192254Z 33010KT 08/M04 A3027 RMK A01 T00771044  RH  042%=      5-min Rain = 0
KVP1 192255Z 33009KT 08/M04 A3027 RMK A01 T00771044  RH  042%=      5-min Rain = 0
KVP1 192256Z 34009KT 08/M05 A3027 RMK A01 T00761045  RH  042%=      5-min Rain = 0
KVP1 192257Z 33010KT 08/M05 A3027 RMK A01 T00761045  RH  042%=      5-min Rain = 0
KVP1 192258Z 33008KT 08/M04 A3027 RMK A01 T00761044  RH  042%=      5-min Rain = 0
KVP1 192259Z 33007KT 08/M04 A3027 RMK A01 T00761044  RH  042%=      5-min Rain = 0
KVP1 192300Z 34007KT 08/M04 A3027 RMK A01 T00761043  RH  042%=      5-min Rain = 0
KVP1 192301Z 33007KT 08/M04 A3027 RMK A01 T00761043  RH  043%=      5-min Rain = 0
KVP1 192302Z 33008KT 08/M05 A3027 RMK A01 T00761045  RH  042%=      5-min Rain = 0
KVP1 192303Z 33007KT 08/M05 A3027 RMK A01 T00761045  RH  042%=      5-min Rain = 0
KVP1 192304Z 33007KT 08/M04 A3027 RMK A01 T00761043  RH  043%=      5-min Rain = 0
KVP1 192305Z 33008KT 08/M04 A3027 RMK A01 T00761042  RH  043%=      5-min Rain = 0
KVP1 192306Z 33010KT 08/M04 A3027 RMK A01 T00751042  RH  043%=      5-min Rain = 0
KVP1 192307Z 33011KT 08/M05 A3027 RMK A01 T00751045  RH  042%=      5-min Rain = 0
KVP1 192308Z 32011KT 07/M05 A3027 RMK A01 T00741046  RH  042%=      5-min Rain = 0
KVP1 192309Z 33010KT 07/M05 A3027 RMK A01 T00741045  RH  042%=      5-min Rain = 0
KVP1 192310Z 34010KT 07/M05 A3027 RMK A01 T00741045  RH  043%=      5-min Rain = 0
KVP1 192311Z 34009KT 07/M04 A3027 RMK A01 T00741043  RH  043%=      5-min Rain = 0
KVP1 192312Z 34011KT 07/M04 A3027 RMK A01 T00741043  RH  043%=      5-min Rain = 0
KVP1 192313Z 34010KT 07/M04 A3027 RMK A01 T00731044  RH  043%=      5-min Rain = 0
KVP1 192314Z 33011KT 07/M05 A3027 RMK A01 T00731045  RH  043%=      5-min Rain = 0
KVP1 192315Z 33010KT 07/M05 A3027 RMK A01 T00731045  RH  043%=      5-min Rain = 0
KVP1 192316Z 33010KT 07/M05 A3027 RMK A01 T00721046  RH  043%=      5-min Rain = 0
KVP1 192317Z 33011KT 07/M05 A3027 RMK A01 T00721046  RH  043%=      5-min Rain = 0
KVP1 192318Z 33010KT 07/M05 A3027 RMK A01 T00711046  RH  043%=      5-min Rain = 0
KVP1 192319Z 33010KT 07/M05 A3027 RMK A01 T00711046  RH  043%=      5-min Rain = 0
KVP1 192320Z 33010KT 07/M05 A3027 RMK A01 T00711046  RH  043%=      5-min Rain = 0
KVP1 192321Z 34009KT 07/M05 A3027 RMK A01 T00701046  RH  043%=      5-min Rain = 0
KVP1 192322Z 34009KT 07/M05 A3027 RMK A01 T00701046  RH  044%=      5-min Rain = 0
KVP1 192323Z 34009KT 07/M05 A3027 RMK A01 T00701045  RH  044%=      5-min Rain = 0
KVP1 192324Z 34007KT 07/M05 A3027 RMK A01 T00691045  RH  044%=      5-min Rain = 0
KVP1 192325Z 35006KT 07/M05 A3027 RMK A01 T00691045  RH  044%=      5-min Rain = 0
KVP1 192326Z 35007KT 07/M04 A3027 RMK A01 T00691044  RH  044%=      5-min Rain = 0
KVP1 192327Z 36006KT 07/M04 A3027 RMK A01 T00691044  RH  044%=      5-min Rain = 0
KVP1 192328Z 36006KT 07/M04 A3027 RMK A01 T00691044  RH  044%=      5-min Rain = 0
KVP1 192329Z 35008KT 07/M04 A3027 RMK A01 T00691043  RH  045%=      5-min Rain = 0
KVP1 192330Z 35007KT 07/M04 A3027 RMK A01 T00691044  RH  045%=      5-min Rain = 0
KVP1 192331Z 35007KT 07/M04 A3027 RMK A01 T00691044  RH  045%=      5-min Rain = 0
KVP1 192332Z 01006KT 07/M04 A3027 RMK A01 T00681044  RH  045%=      5-min Rain = 0
KVP1 192333Z 00007KT 07/M04 A3027 RMK A01 T00671044  RH  045%=      5-min Rain = 0
KVP1 192334Z 00007KT 07/M04 A3027 RMK A01 T00671044  RH  045%=      5-min Rain = 0
KVP1 192335Z 36006KT 07/M04 A3027 RMK A01 T00671044  RH  045%=      5-min Rain = 0
KVP1 192336Z 36007KT 07/M04 A3027 RMK A01 T00671044  RH  045%=      5-min Rain = 0
KVP1 192337Z 36007KT 07/M04 A3027 RMK A01 T00661044  RH  045%=      5-min Rain = 0
KVP1 192338Z 36007KT 07/M04 A3027 RMK A01 T00661044  RH  045%=      5-min Rain = 0
KVP1 192339Z 35006KT 07/M05 A3027 RMK A01 T00651045  RH  045%=      5-min Rain = 0
KVP1 192340Z 35005KT 06/M05 A3027 RMK A01 T00641045  RH  046%=      5-min Rain = 0
KVP1 192341Z 35006KT 06/M05 A3027 RMK A01 T00631046  RH  046%=      5-min Rain = 0
KVP1 192342Z 35005KT 06/M05 A3027 RMK A01 T00611047  RH  046%=      5-min Rain = 0
KVP1 192343Z 35005KT 06/M05 A3027 RMK A01 T00601047  RH  046%=      5-min Rain = 0
KVP1 192344Z 35005KT 06/M05 A3027 RMK A01 T00581047  RH  047%=      5-min Rain = 0
KVP1 192345Z 35004KT 06/M05 A3027 RMK A01 T00581048  RH  047%=      5-min Rain = 0
KVP1 192346Z 35005KT 06/M05 A3027 RMK A01 T00561048  RH  047%=      5-min Rain = 0
KVP1 192347Z 35005KT 05/M05 A3027 RMK A01 T00541049  RH  047%=      5-min Rain = 0
KVP1 192348Z 35005KT 05/M05 A3027 RMK A01 T00531049  RH  048%=      5-min Rain = 0
KVP1 192349Z 35005KT 05/M05 A3027 RMK A01 T00511050  RH  048%=      5-min Rain = 0
KVP1 192350Z 35005KT 05/M05 A3027 RMK A01 T00501050  RH  048%=      5-min Rain = 0
KVP1 192351Z 35005KT 05/M05 A3027 RMK A01 T00491051  RH  049%=      5-min Rain = 0
KVP1 192352Z 35004KT 05/M05 A3027 RMK A01 T00471052  RH  049%=      5-min Rain = 0
KVP1 192353Z 35005KT 05/M05 A3027 RMK A01 T00451052  RH  049%=      5-min Rain = 0
KVP1 192354Z 35005KT 04/M05 A3027 RMK A01 T00441051  RH  050%=      5-min Rain = 0
KVP1 192355Z 35005KT 04/M05 A3027 RMK A01 T00431052  RH  050%=      5-min Rain = 0
KVP1 192356Z 35005KT 04/M05 A3027 RMK A01 T00411053  RH  050%=      5-min Rain = 0
KVP1 192357Z 35005KT 04/M05 A3027 RMK A01 T00411052  RH  051%=      5-min Rain = 0
KVP1 192358Z 35005KT 04/M05 A3027 RMK A01 T00411052  RH  051%=      5-min Rain = 0
KVP1 192359Z 35006KT 04/M05 A3027 RMK A01 T00401051  RH  051%=      5-min Rain = 0
KVP1 200000Z 35006KT 04/M05 A3027 RMK A01 T00421050  RH  051%=      5-min Rain = 0
KVP1 200001Z 35006KT 04/M05 A3027 RMK A01 T00431050  RH  051%=      5-min Rain = 0
KVP1 200002Z 35006KT 04/M05 A3027 RMK A01 T00441050  RH  051%=      5-min Rain = 0
KVP1 200003Z 35007KT 04/M05 A3027 RMK A01 T00441050  RH  050%=      5-min Rain = 0
KVP1 200004Z 35007KT 04/M05 A3027 RMK A01 T00441050  RH  050%=      5-min Rain = 0
KVP1 200005Z 35007KT 04/M05 A3027 RMK A01 T00441050  RH  050%=      5-min Rain = 0
KVP1 200006Z 35007KT 04/M05 A3027 RMK A01 T00441051  RH  050%=      5-min Rain = 0
KVP1 200007Z 35007KT 04/M05 A3027 RMK A01 T00431051  RH  050%=      5-min Rain = 0
KVP1 200008Z 00007KT 04/M05 A3027 RMK A01 T00411052  RH  051%=      5-min Rain = 0
KVP1 200009Z 00007KT 04/M05 A3027 RMK A01 T00401052  RH  051%=      5-min Rain = 0
KVP1 200010Z 00008KT 04/M05 A3027 RMK A01 T00391052  RH  051%=      5-min Rain = 0
KVP1 200011Z 00008KT 04/M05 A3027 RMK A01 T00391052  RH  051%=      5-min Rain = 0
KVP1 200012Z 00007KT 04/M05 A3027 RMK A01 T00391052  RH  051%=      5-min Rain = 0
KVP1 200013Z 00008KT 04/M05 A3027 RMK A01 T00401051  RH  052%=      5-min Rain = 0
KVP1 200014Z 00007KT 04/M05 A3027 RMK A01 T00401051  RH  052%=      5-min Rain = 0
KVP1 200015Z 00007KT 04/M05 A3027 RMK A01 T00401051  RH  052%=      5-min Rain = 0
KVP1 200016Z 01007KT 04/M05 A3027 RMK A01 T00401050  RH  052%=      5-min Rain = 0
KVP1 200017Z 01006KT 04/M05 A3027 RMK A01 T00401050  RH  052%=      5-min Rain = 0
KVP1 200018Z 01007KT 04/M05 A3027 RMK A01 T00401050  RH  052%=      5-min Rain = 0
KVP1 200019Z 01007KT 04/M05 A3027 RMK A01 T00391050  RH  052%=      5-min Rain = 0
KVP1 200020Z 01006KT 04/M05 A3027 RMK A01 T00391050  RH  052%=      5-min Rain = 0
KVP1 200021Z 01006KT 04/M05 A3027 RMK A01 T00381050  RH  052%=      5-min Rain = 0
KVP1 200022Z 01006KT 04/M05 A3027 RMK A01 T00391050  RH  052%=      5-min Rain = 0
KVP1 200023Z 01006KT 04/M05 A3027 RMK A01 T00381051  RH  052%=      5-min Rain = 0
KVP1 200024Z 01006KT 04/M05 A3027 RMK A01 T00371051  RH  053%=      5-min Rain = 0
KVP1 200025Z 01007KT 04/M05 A3027 RMK A01 T00361050  RH  053%=      5-min Rain = 0
KVP1 200026Z 01007KT 04/M05 A3027 RMK A01 T00371050  RH  053%=      5-min Rain = 0
KVP1 200027Z 01007KT 04/M05 A3027 RMK A01 T00371051  RH  053%=      5-min Rain = 0
KVP1 200028Z 01007KT 04/M05 A3027 RMK A01 T00361052  RH  053%=      5-min Rain = 0
KVP1 200029Z 02007KT 03/M05 A3027 RMK A01 T00331054  RH  053%=      5-min Rain = 0
KVP1 200030Z 02007KT 03/M05 A3027 RMK A01 T00311054  RH  054%=      5-min Rain = 0
KVP1 200031Z 02007KT 03/M05 A3027 RMK A01 T00291054  RH  054%=      5-min Rain = 0
KVP1 200032Z 02008KT 03/M06 A3027 RMK A01 T00271055  RH  055%=      5-min Rain = 0
KVP1 200033Z 02008KT 03/M06 A3027 RMK A01 T00261055  RH  055%=      5-min Rain = 0
KVP1 200034Z 02007KT 03/M06 A3027 RMK A01 T00251055  RH  056%=      5-min Rain = 0
KVP1 200035Z 02007KT 03/M05 A3027 RMK A01 T00251054  RH  056%=      5-min Rain = 0
KVP1 200036Z 02007KT 03/M05 A3027 RMK A01 T00251053  RH  056%=      5-min Rain = 0
KVP1 200037Z 02007KT 02/M05 A3027 RMK A01 T00241054  RH  056%=      5-min Rain = 0
KVP1 200038Z 02007KT 02/M06 A3027 RMK A01 T00231055  RH  056%=      5-min Rain = 0
KVP1 200039Z 02007KT 02/M06 A3027 RMK A01 T00221055  RH  057%=      5-min Rain = 0
KVP1 200040Z 03007KT 02/M06 A3027 RMK A01 T00211055  RH  057%=      5-min Rain = 0
KVP1 200041Z 03007KT 02/M06 A3027 RMK A01 T00201055  RH  058%=      5-min Rain = 0
KVP1 200042Z 03007KT 02/M06 A3027 RMK A01 T00191055  RH  058%=      5-min Rain = 0
KVP1 200043Z 03007KT 02/M06 A3027 RMK A01 T00191055  RH  058%=      5-min Rain = 0
KVP1 200044Z 03007KT 02/M06 A3027 RMK A01 T00191055  RH  058%=      5-min Rain = 0
KVP1 200045Z 03007KT 02/M05 A3027 RMK A01 T00181054  RH  059%=      5-min Rain = 0
KVP1 200046Z 03007KT 02/M05 A3027 RMK A01 T00181054  RH  059%=      5-min Rain = 0
KVP1 200047Z 03007KT 02/M05 A3027 RMK A01 T00191053  RH  059%=      5-min Rain = 0
KVP1 200048Z 03007KT 02/M05 A3027 RMK A01 T00191053  RH  059%=      5-min Rain = 0
KVP1 200049Z 03007KT 02/M05 A3027 RMK A01 T00201053  RH  059%=      5-min Rain = 0
KVP1 200050Z 03007KT 02/M05 A3027 RMK A01 T00201054  RH  058%=      5-min Rain = 0
KVP1 200051Z 02007KT 02/M05 A3027 RMK A01 T00201054  RH  058%=      5-min Rain = 0
KVP1 200052Z 02007KT 02/M05 A3027 RMK A01 T00201053  RH  058%=      5-min Rain = 0
KVP1 200053Z 02007KT 02/M05 A3027 RMK A01 T00211052  RH  058%=      5-min Rain = 0
KVP1 200054Z 02007KT 02/M05 A3027 RMK A01 T00221052  RH  058%=      5-min Rain = 0
KVP1 200055Z 02007KT 02/M05 A3027 RMK A01 T00231052  RH  058%=      5-min Rain = 0
KVP1 200056Z 02007KT 02/M05 A3027 RMK A01 T00241052  RH  057%=      5-min Rain = 0
KVP1 200057Z 02007KT 03/M05 A3027 RMK A01 T00251052  RH  057%=      5-min Rain = 0
KVP1 200058Z 02006KT 03/M05 A3027 RMK A01 T00251052  RH  057%=      5-min Rain = 0
KVP1 200059Z 02006KT 02/M05 A3027 RMK A01 T00241053  RH  057%=      5-min Rain = 0
KVP1 200100Z 02006KT 02/M05 A3027 RMK A01 T00241053  RH  057%=      5-min Rain = 0
KVP1 200101Z 02006KT 02/M05 A3027 RMK A01 T00231053  RH  057%=      5-min Rain = 0
KVP1 200102Z 02005KT 02/M05 A3027 RMK A01 T00231053  RH  057%=      5-min Rain = 0
KVP1 200103Z 02005KT 02/M05 A3027 RMK A01 T00231053  RH  057%=      5-min Rain = 0
KVP1 200104Z 02005KT 02/M05 A3027 RMK A01 T00231053  RH  057%=      5-min Rain = 0
KVP1 200105Z 03005KT 02/M05 A3027 RMK A01 T00231053  RH  057%=      5-min Rain = 0
KVP1 200106Z 03005KT 02/M05 A3027 RMK A01 T00241053  RH  057%=      5-min Rain = 0
KVP1 200107Z 03005KT 02/M05 A3027 RMK A01 T00231054  RH  057%=      5-min Rain = 0
KVP1 200108Z 04005KT 02/M05 A3026 RMK A01 T00221054  RH  057%=      5-min Rain = 0
KVP1 200109Z 04005KT 02/M05 A3026 RMK A01 T00221053  RH  057%=      5-min Rain = 0
KVP1 200110Z 04006KT 02/M05 A3026 RMK A01 T00211054  RH  057%=      5-min Rain = 0
KVP1 200111Z 04006KT 02/M06 A3026 RMK A01 T00201055  RH  057%=      5-min Rain = 0
KVP1 200112Z 04007KT 02/M06 A3026 RMK A01 T00181057  RH  058%=      5-min Rain = 0
KVP1 200113Z 04006KT 01/M06 A3026 RMK A01 T00141060  RH  058%=      5-min Rain = 0
KVP1 200114Z 04006KT 01/M06 A3026 RMK A01 T00101062  RH  059%=      5-min Rain = 0
KVP1 200115Z 04007KT 01/M06 A3026 RMK A01 T00061063  RH  060%=      5-min Rain = 0
KVP1 200116Z 04007KT 00/M06 A3026 RMK A01 T00041061  RH  062%=      5-min Rain = 0
KVP1 200117Z 04007KT 01/M06 A3026 RMK A01 T00051058  RH  063%=      5-min Rain = 0
KVP1 200118Z 04006KT 01/M06 A3026 RMK A01 T00061057  RH  063%=      5-min Rain = 0
KVP1 200119Z 04006KT 01/M06 A3025 RMK A01 T00071056  RH  063%=      5-min Rain = 0
KVP1 200120Z 04006KT 01/M06 A3025 RMK A01 T00081055  RH  062%=      5-min Rain = 0
KVP1 200121Z 04005KT 01/M05 A3025 RMK A01 T00091054  RH  062%=      5-min Rain = 0
KVP1 200122Z 04005KT 01/M05 A3025 RMK A01 T00111054  RH  062%=      5-min Rain = 0
KVP1 200123Z 04005KT 01/M05 A3025 RMK A01 T00131053  RH  061%=      5-min Rain = 0
KVP1 200124Z 04005KT 01/M05 A3025 RMK A01 T00141054  RH  061%=      5-min Rain = 0
KVP1 200125Z 04004KT 02/M05 A3025 RMK A01 T00151054  RH  060%=      5-min Rain = 0
KVP1 200126Z 04004KT 02/M06 A3025 RMK A01 T00151055  RH  060%=      5-min Rain = 0
KVP1 200127Z 04004KT 01/M06 A3025 RMK A01 T00141056  RH  060%=      5-min Rain = 0
KVP1 200128Z 04004KT 01/M06 A3025 RMK A01 T00141056  RH  060%=      5-min Rain = 0
KVP1 200129Z 04006KT 01/M06 A3025 RMK A01 T00131055  RH  060%=      5-min Rain = 0
KVP1 200130Z 04007KT 01/M06 A3024 RMK A01 T00131055  RH  060%=      5-min Rain = 0
KVP1 200131Z 04007KT 01/M06 A3024 RMK A01 T00131055  RH  060%=      5-min Rain = 0
KVP1 200132Z 04006KT 01/M06 A3024 RMK A01 T00121056  RH  060%=      5-min Rain = 0
KVP1 200133Z 05005KT 01/M06 A3024 RMK A01 T00111057  RH  060%=      5-min Rain = 0
KVP1 200134Z 05005KT 01/M06 A3024 RMK A01 T00101057  RH  061%=      5-min Rain = 0
KVP1 200135Z 05004KT 01/M06 A3024 RMK A01 T00091058  RH  061%=      5-min Rain = 0
KVP1 200136Z 05004KT 01/M06 A3024 RMK A01 T00081058  RH  061%=      5-min Rain = 0
KVP1 200137Z 05005KT 01/M06 A3024 RMK A01 T00071058  RH  062%=      5-min Rain = 0
KVP1 200138Z 05004KT 01/M06 A3024 RMK A01 T00071058  RH  062%=      5-min Rain = 0
KVP1 200139Z 05004KT 01/M06 A3025 RMK A01 T00061058  RH  062%=      5-min Rain = 0
KVP1 200140Z 06004KT 01/M06 A3025 RMK A01 T00061058  RH  062%=      5-min Rain = 0
KVP1 200141Z 06004KT 01/M06 A3025 RMK A01 T00051057  RH  063%=      5-min Rain = 0
KVP1 200142Z 06004KT 01/M06 A3025 RMK A01 T00061056  RH  063%=      5-min Rain = 0
KVP1 200143Z 06004KT 01/M06 A3025 RMK A01 T00061058  RH  062%=      5-min Rain = 0
KVP1 200144Z 06004KT 01/M06 A3024 RMK A01 T00051061  RH  061%=      5-min Rain = 0
KVP1 200145Z 06005KT 00/M06 A3024 RMK A01 T00031062  RH  062%=      5-min Rain = 0
KVP1 200146Z 06005KT 00/M06 A3024 RMK A01 T00011063  RH  062%=      5-min Rain = 0
KVP1 200147Z 06005KT 00/06 A3024 RMK A01 T00000-62  RH  063%=      5-min Rain = 0
KVP1 200148Z 07004KT 00/06 A3024 RMK A01 T00000-61  RH  063%=      5-min Rain = 0
KVP1 200149Z 07005KT 00/06 A3024 RMK A01 T00000-61  RH  064%=      5-min Rain = 0
KVP1 200150Z 08004KT 00/06 A3024 RMK A01 T00000-61  RH  063%=      5-min Rain = 0
KVP1 200151Z 09004KT 00/06 A3025 RMK A01 T00000-60  RH  064%=      5-min Rain = 0
KVP1 200152Z 09004KT 00/M06 A3025 RMK A01 T00011059  RH  064%=      5-min Rain = 0
KVP1 200153Z 09005KT 00/M06 A3025 RMK A01 T00021059  RH  064%=      5-min Rain = 0
KVP1 200154Z 08005KT 00/M06 A3025 RMK A01 T00021058  RH  064%=      5-min Rain = 0
KVP1 200155Z 08005KT 00/M06 A3025 RMK A01 T00031058  RH  064%=      5-min Rain = 0
KVP1 200156Z 08006KT 00/M06 A3025 RMK A01 T00021060  RH  063%=      5-min Rain = 0
KVP1 200157Z 08006KT 00/07 A3025 RMK A01 T00-00-65  RH  062%=      5-min Rain = 0
KVP1 200158Z 08006KT M00/M07 A3025 RMK A01 T10041068  RH  062%=      5-min Rain = 0
KVP1 200159Z 08006KT M01/M07 A3025 RMK A01 T10051065  RH  064%=      5-min Rain = 0
KVP1 200200Z 07006KT M01/M06 A3025 RMK A01 T10051063  RH  065%=      5-min Rain = 0
KVP1 200201Z 07007KT M01/M06 A3025 RMK A01 T10051063  RH  065%=      5-min Rain = 0
KVP1 200202Z 07007KT M01/M06 A3025 RMK A01 T10051064  RH  065%=      5-min Rain = 0
KVP1 200203Z 07006KT M01/M07 A3025 RMK A01 T10061065  RH  065%=      5-min Rain = 0
KVP1 200204Z 07006KT M01/M07 A3025 RMK A01 T10071065  RH  065%=      5-min Rain = 0
KVP1 200205Z 07006KT M01/M07 A3025 RMK A01 T10081065  RH  065%=      5-min Rain = 0
KVP1 200206Z 07006KT M01/M06 A3025 RMK A01 T10081064  RH  066%=      5-min Rain = 0
KVP1 200207Z 08005KT M01/M06 A3025 RMK A01 T10071063  RH  066%=      5-min Rain = 0
KVP1 200208Z 08004KT M01/M06 A3026 RMK A01 T10071063  RH  066%=      5-min Rain = 0
KVP1 200209Z 09004KT M01/M06 A3026 RMK A01 T10061062  RH  066%=      5-min Rain = 0
KVP1 200210Z 09004KT M01/M06 A3026 RMK A01 T10061063  RH  066%=      5-min Rain = 0
KVP1 200211Z 09003KT M01/M06 A3026 RMK A01 T10071063  RH  066%=      5-min Rain = 0
KVP1 200212Z 08004KT M01/M06 A3026 RMK A01 T10071063  RH  066%=      5-min Rain = 0
KVP1 200213Z 07005KT M01/M06 A3026 RMK A01 T10081062  RH  067%=      5-min Rain = 0
KVP1 200214Z 06005KT M01/M06 A3026 RMK A01 T10071060  RH  067%=      5-min Rain = 0
KVP1 200215Z 06006KT M01/M06 A3026 RMK A01 T10051059  RH  067%=      5-min Rain = 0
KVP1 200216Z 06007KT M00/M06 A3026 RMK A01 T10041060  RH  066%=      5-min Rain = 0
KVP1 200217Z 06006KT M00/M06 A3026 RMK A01 T10041061  RH  065%=      5-min Rain = 0
KVP1 200218Z 06006KT M00/M06 A3026 RMK A01 T10041060  RH  066%=      5-min Rain = 0
KVP1 200219Z 06005KT M00/M06 A3027 RMK A01 T10031059  RH  066%=      5-min Rain = 0
KVP1 200220Z 07005KT M00/M06 A3027 RMK A01 T10031059  RH  066%=      5-min Rain = 0
KVP1 200221Z 07005KT M00/M06 A3027 RMK A01 T10021057  RH  066%=      5-min Rain = 0
KVP1 200222Z 07005KT 00/06 A3026 RMK A01 T00000-57  RH  066%=      5-min Rain = 0
KVP1 200223Z 06005KT 00/06 A3027 RMK A01 T00000-58  RH  065%=      5-min Rain = 0
KVP1 200224Z 06005KT M00/M06 A3027 RMK A01 T10011060  RH  065%=      5-min Rain = 0
KVP1 200225Z 07005KT M00/M06 A3027 RMK A01 T10021060  RH  065%=      5-min Rain = 0
KVP1 200226Z 07005KT M00/M06 A3027 RMK A01 T10031061  RH  065%=      5-min Rain = 0
KVP1 200227Z 07005KT M00/M06 A3027 RMK A01 T10041062  RH  065%=      5-min Rain = 0
KVP1 200228Z 06005KT M01/M06 A3027 RMK A01 T10051063  RH  065%=      5-min Rain = 0
KVP1 200229Z 06004KT M01/M06 A3027 RMK A01 T10061063  RH  066%=      5-min Rain = 0
KVP1 200230Z 06004KT M01/M06 A3027 RMK A01 T10071063  RH  066%=      5-min Rain = 0
KVP1 200231Z 06004KT M01/M06 A3027 RMK A01 T10081063  RH  066%=      5-min Rain = 0
KVP1 200232Z 06005KT M01/M06 A3028 RMK A01 T10091063  RH  067%=      5-min Rain = 0
KVP1 200233Z 07005KT M01/M06 A3027 RMK A01 T10091062  RH  067%=      5-min Rain = 0
KVP1 200234Z 07005KT M01/M06 A3027 RMK A01 T10081060  RH  068%=      5-min Rain = 0
KVP1 200235Z 07005KT M01/M06 A3027 RMK A01 T10061059  RH  067%=      5-min Rain = 0
KVP1 200236Z 07006KT M00/M06 A3028 RMK A01 T10041059  RH  067%=      5-min Rain = 0
KVP1 200237Z 07006KT M00/M06 A3028 RMK A01 T10041059  RH  066%=      5-min Rain = 0
KVP1 200238Z 08006KT M00/M06 A3027 RMK A01 T10041060  RH  066%=      5-min Rain = 0
KVP1 200239Z 08006KT M00/M06 A3027 RMK A01 T10031058  RH  066%=      5-min Rain = 0
KVP1 200240Z 08006KT M00/M06 A3027 RMK A01 T10021057  RH  066%=      5-min Rain = 0
KVP1 200241Z 09006KT 00/06 A3027 RMK A01 T00-00-57  RH  066%=      5-min Rain = 0
KVP1 200242Z 09006KT M00/M06 A3027 RMK A01 T10011059  RH  065%=      5-min Rain = 0
KVP1 200243Z 09006KT M00/M06 A3027 RMK A01 T10041061  RH  065%=      5-min Rain = 0
KVP1 200244Z 09006KT M00/M06 A3027 RMK A01 T10041061  RH  066%=      5-min Rain = 0
KVP1 200245Z 09006KT M00/M06 A3027 RMK A01 T10041060  RH  066%=      5-min Rain = 0
KVP1 200246Z 08007KT M00/M06 A3027 RMK A01 T10031058  RH  066%=      5-min Rain = 0
KVP1 200247Z 08007KT M00/M06 A3027 RMK A01 T10021057  RH  066%=      5-min Rain = 0
KVP1 200248Z 08007KT M00/M06 A3027 RMK A01 T10011057  RH  066%=      5-min Rain = 0
KVP1 200249Z 08007KT 00/06 A3026 RMK A01 T00000-57  RH  066%=      5-min Rain = 0
KVP1 200250Z 08007KT 00/M06 A3026 RMK A01 T00011056  RH  065%=      5-min Rain = 0
KVP1 200251Z 08007KT 00/M06 A3026 RMK A01 T00031055  RH  065%=      5-min Rain = 0
KVP1 200252Z 08007KT 00/M06 A3026 RMK A01 T00041055  RH  065%=      5-min Rain = 0
KVP1 200253Z 08007KT 00/M06 A3026 RMK A01 T00041055  RH  064%=      5-min Rain = 0
KVP1 200254Z 09007KT 01/M06 A3027 RMK A01 T00051055  RH  064%=      5-min Rain = 0
KVP1 200255Z 09006KT 00/M06 A3027 RMK A01 T00031058  RH  063%=      5-min Rain = 0
KVP1 200256Z 09007KT M00/M06 A3027 RMK A01 T10021064  RH  063%=      5-min Rain = 0
KVP1 200257Z 10007KT M01/M07 A3027 RMK A01 T10051065  RH  064%=      5-min Rain = 0
KVP1 200258Z 10007KT M01/M07 A3027 RMK A01 T10081066  RH  065%=      5-min Rain = 0
KVP1 200259Z 10007KT M01/M07 A3027 RMK A01 T10091066  RH  066%=      5-min Rain = 0
KVP1 200300Z 10007KT M01/M07 A3027 RMK A01 T10111065  RH  066%=      5-min Rain = 0
KVP1 200301Z 11006KT M01/M07 A3027 RMK A01 T10121066  RH  067%=      5-min Rain = 0
KVP1 200302Z 11006KT M01/M07 A3027 RMK A01 T10131067  RH  067%=      5-min Rain = 0
KVP1 200303Z 11007KT M02/M07 A3027 RMK A01 T10151067  RH  068%=      5-min Rain = 0
KVP1 200304Z 11006KT M02/M07 A3027 RMK A01 T10161067  RH  068%=      5-min Rain = 0
KVP1 200305Z 11006KT M02/M07 A3027 RMK A01 T10171067  RH  069%=      5-min Rain = 0
KVP1 200306Z 10006KT M02/M07 A3027 RMK A01 T10181067  RH  069%=      5-min Rain = 0
KVP1 200307Z 10006KT M02/M07 A3027 RMK A01 T10181066  RH  069%=      5-min Rain = 0
KVP1 200308Z 10006KT M02/M07 A3027 RMK A01 T10181067  RH  069%=      5-min Rain = 0
KVP1 200309Z 09005KT M02/M07 A3027 RMK A01 T10181067  RH  069%=      5-min Rain = 0
KVP1 200310Z 09005KT M02/M07 A3027 RMK A01 T10191067  RH  070%=      5-min Rain = 0
KVP1 200311Z 09005KT M02/M07 A3027 RMK A01 T10181065  RH  070%=      5-min Rain = 0
KVP1 200312Z 10005KT M02/M06 A3027 RMK A01 T10181064  RH  071%=      5-min Rain = 0
KVP1 200313Z 10005KT M02/M06 A3027 RMK A01 T10171062  RH  071%=      5-min Rain = 0
KVP1 200314Z 10005KT M02/M06 A3026 RMK A01 T10161062  RH  071%=      5-min Rain = 0
KVP1 200315Z 10005KT M02/M06 A3026 RMK A01 T10151061  RH  070%=      5-min Rain = 0
KVP1 200316Z 11005KT M01/M06 A3026 RMK A01 T10141062  RH  070%=      5-min Rain = 0
KVP1 200317Z 11006KT M01/M06 A3027 RMK A01 T10141063  RH  069%=      5-min Rain = 0
KVP1 200318Z 11006KT M01/M06 A3027 RMK A01 T10141063  RH  069%=      5-min Rain = 0
KVP1 200319Z 12006KT M01/M06 A3027 RMK A01 T10141063  RH  069%=      5-min Rain = 0
KVP1 200320Z 12007KT M01/M06 A3026 RMK A01 T10141062  RH  070%=      5-min Rain = 0
KVP1 200321Z 12007KT M01/M06 A3026 RMK A01 T10141061  RH  070%=      5-min Rain = 0
KVP1 200322Z 12007KT M01/M06 A3026 RMK A01 T10141061  RH  070%=      5-min Rain = 0
KVP1 200323Z 12007KT M01/M06 A3026 RMK A01 T10141064  RH  069%=      5-min Rain = 0
KVP1 200324Z 12007KT M02/M07 A3026 RMK A01 T10161065  RH  069%=      5-min Rain = 0
KVP1 200325Z 12007KT M02/M07 A3026 RMK A01 T10171065  RH  070%=      5-min Rain = 0
KVP1 200326Z 12007KT M02/M07 A3026 RMK A01 T10181065  RH  070%=      5-min Rain = 0
KVP1 200327Z 12006KT M02/M07 A3026 RMK A01 T10191066  RH  070%=      5-min Rain = 0
KVP1 200328Z 12006KT M02/M07 A3026 RMK A01 T10201067  RH  070%=      5-min Rain = 0
KVP1 200329Z 12006KT M02/M07 A3026 RMK A01 T10211066  RH  071%=      5-min Rain = 0
KVP1 200330Z 12006KT M02/M06 A3026 RMK A01 T10201064  RH  072%=      5-min Rain = 0
KVP1 200331Z 12006KT M02/M06 A3026 RMK A01 T10191063  RH  072%=      5-min Rain = 0
KVP1 200332Z 12006KT M02/M06 A3026 RMK A01 T10171062  RH  071%=      5-min Rain = 0
KVP1 200333Z 12006KT M02/M06 A3026 RMK A01 T10161063  RH  070%=      5-min Rain = 0
KVP1 200334Z 12006KT M02/M06 A3026 RMK A01 T10151063  RH  069%=      5-min Rain = 0
KVP1 200335Z 12005KT M01/M06 A3026 RMK A01 T10141064  RH  069%=      5-min Rain = 0
KVP1 200336Z 12005KT M01/M06 A3026 RMK A01 T10131063  RH  069%=      5-min Rain = 0
KVP1 200337Z 12005KT M01/M06 A3026 RMK A01 T10121063  RH  068%=      5-min Rain = 0
KVP1 200338Z 12005KT M01/M06 A3026 RMK A01 T10131064  RH  068%=      5-min Rain = 0
KVP1 200339Z 12006KT M01/M07 A3026 RMK A01 T10131065  RH  068%=      5-min Rain = 0
KVP1 200340Z 12006KT M01/M07 A3026 RMK A01 T10131065  RH  068%=      5-min Rain = 0
KVP1 200341Z 12006KT M01/M06 A3026 RMK A01 T10121064  RH  068%=      5-min Rain = 0
KVP1 200342Z 12007KT M01/M06 A3025 RMK A01 T10121064  RH  068%=      5-min Rain = 0
KVP1 200343Z 12007KT M01/M06 A3025 RMK A01 T10121064  RH  068%=      5-min Rain = 0
KVP1 200344Z 12006KT M01/M06 A3025 RMK A01 T10111062  RH  068%=      5-min Rain = 0
KVP1 200345Z 12006KT M01/M06 A3026 RMK A01 T10091061  RH  068%=      5-min Rain = 0
KVP1 200346Z 12006KT M01/M06 A3026 RMK A01 T10081061  RH  067%=      5-min Rain = 0
KVP1 200347Z 12006KT M01/M06 A3026 RMK A01 T10081062  RH  067%=      5-min Rain = 0
KVP1 200348Z 12006KT M01/M06 A3026 RMK A01 T10101064  RH  067%=      5-min Rain = 0
KVP1 200349Z 11006KT M01/M07 A3026 RMK A01 T10111066  RH  067%=      5-min Rain = 0
KVP1 200350Z 11006KT M01/M07 A3026 RMK A01 T10121065  RH  067%=      5-min Rain = 0
KVP1 200351Z 11006KT M01/M07 A3026 RMK A01 T10131065  RH  068%=      5-min Rain = 0
KVP1 200352Z 12006KT M01/M07 A3026 RMK A01 T10141066  RH  068%=      5-min Rain = 0
KVP1 200353Z 13005KT M02/M07 A3027 RMK A01 T10151066  RH  068%=      5-min Rain = 0
KVP1 200354Z 13005KT M02/M07 A3027 RMK A01 T10151065  RH  068%=      5-min Rain = 0
KVP1 200355Z 14005KT M01/M06 A3027 RMK A01 T10141064  RH  069%=      5-min Rain = 0
KVP1 200356Z 14005KT M01/M06 A3027 RMK A01 T10141064  RH  069%=      5-min Rain = 0
KVP1 200357Z 14006KT M01/M06 A3027 RMK A01 T10141063  RH  069%=      5-min Rain = 0
KVP1 200358Z 14006KT M01/M06 A3026 RMK A01 T10131063  RH  069%=      5-min Rain = 0
KVP1 200359Z 15007KT M01/M06 A3026 RMK A01 T10131063  RH  069%=      5-min Rain = 0
KVP1 200400Z 15007KT M01/M06 A3025 RMK A01 T10141063  RH  069%=      5-min Rain = 0
KVP1 200401Z 14008KT M02/M07 A3025 RMK A01 T10161065  RH  069%=      5-min Rain = 0
KVP1 200402Z 14008KT M02/M07 A3025 RMK A01 T10201069  RH  069%=      5-min Rain = 0
KVP1 200403Z 14008KT M02/M07 A3025 RMK A01 T10231070  RH  070%=      5-min Rain = 0
KVP1 200404Z 14008KT M03/M07 A3025 RMK A01 T10251069  RH  072%=      5-min Rain = 0
KVP1 200405Z 14008KT M03/M07 A3025 RMK A01 T10261068  RH  073%=      5-min Rain = 0
KVP1 200406Z 14008KT M03/M07 A3025 RMK A01 T10271067  RH  074%=      5-min Rain = 0
KVP1 200407Z 14008KT M03/M07 A3025 RMK A01 T10261066  RH  074%=      5-min Rain = 0
KVP1 200408Z 14007KT M03/M07 A3025 RMK A01 T10261065  RH  075%=      5-min Rain = 0
KVP1 200409Z 14007KT M03/M07 A3025 RMK A01 T10271065  RH  075%=      5-min Rain = 0
KVP1 200410Z 14007KT M03/M07 A3025 RMK A01 T10261065  RH  075%=      5-min Rain = 0
KVP1 200411Z 14007KT M03/M07 A3025 RMK A01 T10261065  RH  075%=      5-min Rain = 0
KVP1 200412Z 14007KT M03/M07 A3025 RMK A01 T10261065  RH  075%=      5-min Rain = 0
KVP1 200413Z 15007KT M03/M06 A3026 RMK A01 T10251064  RH  074%=      5-min Rain = 0
KVP1 200414Z 15007KT M03/M07 A3026 RMK A01 T10251065  RH  074%=      5-min Rain = 0
KVP1 200415Z 15007KT M03/M07 A3026 RMK A01 T10251065  RH  074%=      5-min Rain = 0
KVP1 200416Z 15007KT M03/M07 A3026 RMK A01 T10251065  RH  074%=      5-min Rain = 0
KVP1 200417Z 15007KT M03/M07 A3025 RMK A01 T10251065  RH  074%=      5-min Rain = 0
KVP1 200418Z 15008KT M03/M07 A3025 RMK A01 T10251065  RH  074%=      5-min Rain = 0
KVP1 200419Z 15008KT M03/M07 A3025 RMK A01 T10251065  RH  074%=      5-min Rain = 0
KVP1 200420Z 15008KT M03/M07 A3025 RMK A01 T10251066  RH  073%=      5-min Rain = 0
KVP1 200421Z 15008KT M03/M07 A3025 RMK A01 T10251066  RH  074%=      5-min Rain = 0
KVP1 200422Z 16007KT M03/M07 A3025 RMK A01 T10261066  RH  074%=      5-min Rain = 0
KVP1 200423Z 16008KT M03/M07 A3025 RMK A01 T10261066  RH  074%=      5-min Rain = 0
KVP1 200424Z 16008KT M03/M07 A3025 RMK A01 T10271066  RH  075%=      5-min Rain = 0
KVP1 200425Z 17008KT M03/M07 A3025 RMK A01 T10271065  RH  075%=      5-min Rain = 0
KVP1 200426Z 17008KT M03/M06 A3025 RMK A01 T10271064  RH  076%=      5-min Rain = 0
KVP1 200427Z 17009KT M03/M06 A3026 RMK A01 T10271063  RH  076%=      5-min Rain = 0
KVP1 200428Z 17008KT M03/M06 A3026 RMK A01 T10271063  RH  076%=      5-min Rain = 0
KVP1 200429Z 17008KT M03/M06 A3026 RMK A01 T10261062  RH  077%=      5-min Rain = 0
KVP1 200430Z 17008KT M03/M06 A3026 RMK A01 T10271062  RH  077%=      5-min Rain = 0
KVP1 200431Z 18008KT M03/M06 A3026 RMK A01 T10261063  RH  076%=      5-min Rain = 0
KVP1 200432Z 17008KT M03/M07 A3026 RMK A01 T10281065  RH  076%=      5-min Rain = 0
KVP1 200433Z 17008KT M03/M07 A3025 RMK A01 T10291067  RH  075%=      5-min Rain = 0
KVP1 200434Z 17007KT M03/M07 A3025 RMK A01 T10311068  RH  076%=      5-min Rain = 0
KVP1 200435Z 17007KT M03/M07 A3025 RMK A01 T10321068  RH  076%=      5-min Rain = 0
KVP1 200436Z 17007KT M03/M07 A3025 RMK A01 T10331068  RH  077%=      5-min Rain = 0
KVP1 200437Z 17007KT M03/M07 A3025 RMK A01 T10341069  RH  077%=      5-min Rain = 0
KVP1 200438Z 17007KT M03/M07 A3025 RMK A01 T10341069  RH  077%=      5-min Rain = 0
KVP1 200439Z 17007KT M04/M07 A3025 RMK A01 T10351070  RH  077%=      5-min Rain = 0
KVP1 200440Z 17008KT M04/M07 A3025 RMK A01 T10371072  RH  077%=      5-min Rain = 0
KVP1 200441Z 17008KT M04/M07 A3025 RMK A01 T10381073  RH  077%=      5-min Rain = 0
KVP1 200442Z 17007KT M04/M07 A3025 RMK A01 T10401074  RH  077%=      5-min Rain = 0
KVP1 200443Z 17007KT M04/M07 A3025 RMK A01 T10411074  RH  078%=      5-min Rain = 0
KVP1 200444Z 17007KT M04/M07 A3025 RMK A01 T10421074  RH  078%=      5-min Rain = 0
KVP1 200445Z 17008KT M04/M07 A3026 RMK A01 T10421074  RH  079%=      5-min Rain = 0
KVP1 200446Z 17008KT M04/M07 A3025 RMK A01 T10421073  RH  079%=      5-min Rain = 0
KVP1 200447Z 16008KT M04/M07 A3025 RMK A01 T10431073  RH  079%=      5-min Rain = 0
KVP1 200448Z 16008KT M04/M07 A3025 RMK A01 T10431073  RH  080%=      5-min Rain = 0
KVP1 200449Z 16008KT M04/M07 A3025 RMK A01 T10431073  RH  080%=      5-min Rain = 0
KVP1 200450Z 16008KT M04/M07 A3025 RMK A01 T10431072  RH  080%=      5-min Rain = 0
KVP1 200451Z 15008KT M04/M07 A3025 RMK A01 T10421069  RH  081%=      5-min Rain = 0
KVP1 200452Z 15007KT M04/M07 A3025 RMK A01 T10391066  RH  081%=      5-min Rain = 0
KVP1 200453Z 15007KT M04/M07 A3025 RMK A01 T10371065  RH  081%=      5-min Rain = 0
KVP1 200454Z 16007KT M04/M06 A3025 RMK A01 T10361064  RH  081%=      5-min Rain = 0
KVP1 200455Z 15007KT M04/M06 A3025 RMK A01 T10351064  RH  080%=      5-min Rain = 0
KVP1 200456Z 15007KT M03/M06 A3025 RMK A01 T10341064  RH  080%=      5-min Rain = 0
KVP1 200457Z 15007KT M03/M07 A3025 RMK A01 T10341065  RH  079%=      5-min Rain = 0
KVP1 200458Z 15007KT M03/M07 A3025 RMK A01 T10341066  RH  079%=      5-min Rain = 0
KVP1 200459Z 16007KT M03/M07 A3026 RMK A01 T10341066  RH  078%=      5-min Rain = 0
KVP1 200500Z 16007KT M04/M07 A3026 RMK A01 T10351067  RH  079%=      5-min Rain = 0
KVP1 200501Z 16007KT M04/M07 A3027 RMK A01 T10351067  RH  079%=      5-min Rain = 0
KVP1 200502Z 16007KT M04/M07 A3027 RMK A01 T10351067  RH  079%=      5-min Rain = 0
KVP1 200503Z 16007KT M04/M07 A3027 RMK A01 T10361067  RH  079%=      5-min Rain = 0
KVP1 200504Z 17007KT M04/M07 A3027 RMK A01 T10361067  RH  079%=      5-min Rain = 0
KVP1 200505Z 17007KT M04/M07 A3027 RMK A01 T10361067  RH  079%=      5-min Rain = 0
KVP1 200506Z 17007KT M04/M07 A3027 RMK A01 T10371068  RH  079%=      5-min Rain = 0
KVP1 200507Z 17007KT M04/M07 A3027 RMK A01 T10391070  RH  079%=      5-min Rain = 0
KVP1 200508Z 16007KT M04/M07 A3027 RMK A01 T10401070  RH  079%=      5-min Rain = 0
KVP1 200509Z 16007KT M04/M07 A3027 RMK A01 T10401071  RH  079%=      5-min Rain = 0
KVP1 200510Z 16007KT M04/M07 A3027 RMK A01 T10411072  RH  079%=      5-min Rain = 0
KVP1 200511Z 16007KT M04/M07 A3026 RMK A01 T10421072  RH  080%=      5-min Rain = 0
KVP1 200512Z 17008KT M04/M07 A3026 RMK A01 T10421072  RH  080%=      5-min Rain = 0
KVP1 200513Z 18008KT M04/M07 A3026 RMK A01 T10431072  RH  080%=      5-min Rain = 0
KVP1 200514Z 18009KT M04/M07 A3026 RMK A01 T10441074  RH  080%=      5-min Rain = 0
KVP1 200515Z 18009KT M05/M08 A3027 RMK A01 T10451075  RH  080%=      5-min Rain = 0
KVP1 200516Z 18009KT M05/M08 A3027 RMK A01 T10451075  RH  080%=      5-min Rain = 0
KVP1 200517Z 18008KT M05/M07 A3027 RMK A01 T10461074  RH  081%=      5-min Rain = 0
KVP1 200518Z 17008KT M05/M07 A3027 RMK A01 T10461073  RH  081%=      5-min Rain = 0
KVP1 200519Z 18008KT M05/M07 A3027 RMK A01 T10461074  RH  081%=      5-min Rain = 0
KVP1 200520Z 17008KT M05/M07 A3027 RMK A01 T10461074  RH  081%=      5-min Rain = 0
KVP1 200521Z 17009KT M05/M07 A3027 RMK A01 T10461073  RH  082%=      5-min Rain = 0
KVP1 200522Z 17009KT M05/M07 A3027 RMK A01 T10461073  RH  082%=      5-min Rain = 0
KVP1 200523Z 17008KT M05/M07 A3027 RMK A01 T10461072  RH  082%=      5-min Rain = 0
KVP1 200524Z 17008KT M05/M07 A3027 RMK A01 T10461072  RH  082%=      5-min Rain = 0
KVP1 200525Z 16008KT M05/M07 A3027 RMK A01 T10461071  RH  082%=      5-min Rain = 0
KVP1 200526Z 16008KT M05/M07 A3027 RMK A01 T10451070  RH  082%=      5-min Rain = 0
KVP1 200527Z 16007KT M04/M07 A3027 RMK A01 T10441069  RH  082%=      5-min Rain = 0
KVP1 200528Z 16007KT M04/M07 A3027 RMK A01 T10431068  RH  083%=      5-min Rain = 0
KVP1 200529Z 16006KT M04/M07 A3027 RMK A01 T10421068  RH  082%=      5-min Rain = 0
KVP1 200530Z 16007KT M04/M07 A3027 RMK A01 T10411067  RH  082%=      5-min Rain = 0
KVP1 200531Z 16007KT M04/M07 A3027 RMK A01 T10411068  RH  082%=      5-min Rain = 0
KVP1 200532Z 17008KT M04/M07 A3027 RMK A01 T10411068  RH  082%=      5-min Rain = 0
KVP1 200533Z 17008KT M04/M07 A3027 RMK A01 T10411068  RH  081%=      5-min Rain = 0
KVP1 200534Z 17008KT M04/M07 A3027 RMK A01 T10411069  RH  081%=      5-min Rain = 0
KVP1 200535Z 16008KT M04/M07 A3027 RMK A01 T10421068  RH  082%=      5-min Rain = 0
KVP1 200536Z 16008KT M04/M07 A3027 RMK A01 T10411067  RH  082%=      5-min Rain = 0
KVP1 200537Z 16007KT M04/M07 A3027 RMK A01 T10411065  RH  083%=      5-min Rain = 0
KVP1 200538Z 16007KT M04/M06 A3027 RMK A01 T10391063  RH  084%=      5-min Rain = 0
KVP1 200539Z 17007KT M04/M06 A3028 RMK A01 T10381061  RH  084%=      5-min Rain = 0
KVP1 200540Z 17007KT M04/M06 A3028 RMK A01 T10361061  RH  083%=      5-min Rain = 0
KVP1 200541Z 17008KT M04/M06 A3028 RMK A01 T10351061  RH  082%=      5-min Rain = 0
KVP1 200542Z 17008KT M04/M06 A3028 RMK A01 T10351062  RH  081%=      5-min Rain = 0
KVP1 200543Z 17008KT M04/M06 A3028 RMK A01 T10351063  RH  081%=      5-min Rain = 0
KVP1 200544Z 17009KT M04/M06 A3027 RMK A01 T10361064  RH  081%=      5-min Rain = 0
KVP1 200545Z 17009KT M04/M06 A3027 RMK A01 T10371064  RH  081%=      5-min Rain = 0
KVP1 200546Z 16009KT M04/M06 A3027 RMK A01 T10371064  RH  082%=      5-min Rain = 0
KVP1 200547Z 16008KT M04/M06 A3027 RMK A01 T10371063  RH  082%=      5-min Rain = 0
KVP1 200548Z 16008KT M04/M06 A3027 RMK A01 T10361062  RH  082%=      5-min Rain = 0
KVP1 200549Z 16007KT M04/M06 A3028 RMK A01 T10351060  RH  083%=      5-min Rain = 0
KVP1 200550Z 16006KT M03/M06 A3028 RMK A01 T10331059  RH  083%=      5-min Rain = 0
KVP1 200551Z 16006KT M03/M06 A3029 RMK A01 T10321058  RH  082%=      5-min Rain = 0
KVP1 200552Z 16006KT M03/M06 A3029 RMK A01 T10311059  RH  081%=      5-min Rain = 0
KVP1 200553Z 16007KT M03/M06 A3029 RMK A01 T10311059  RH  081%=      5-min Rain = 0
KVP1 200554Z 16007KT M03/M06 A3028 RMK A01 T10311059  RH  081%=      5-min Rain = 0
KVP1 200555Z 16007KT M03/M06 A3028 RMK A01 T10311060  RH  081%=      5-min Rain = 0
KVP1 200556Z 16008KT M03/M06 A3028 RMK A01 T10321061  RH  080%=      5-min Rain = 0
KVP1 200557Z 15008KT M03/M06 A3027 RMK A01 T10321061  RH  080%=      5-min Rain = 0
KVP1 200558Z 15008KT M03/M06 A3027 RMK A01 T10331062  RH  081%=      5-min Rain = 0
KVP1 200559Z 15008KT M03/M06 A3027 RMK A01 T10341062  RH  081%=      5-min Rain = 0

Page generated in 0.1492 seconds.